<?xml version='1.0' encoding='UTF-8'?><gpx version="1.1" creator="JPX - https://github.com/jenetics/jpx" xmlns="http://www.topografix.com/GPX/1/1"><trk><trkseg><trkpt lat="45.75947" lon="8.9683917"><ele>381.8333333333333</ele><time>2026-04-11T06:26:57.128Z</time></trkpt><trkpt lat="45.7595033" lon="8.9682083"><ele>381.66666666666663</ele><time>2026-04-11T06:27:22.129Z</time></trkpt><trkpt lat="45.7594383" lon="8.968215"><ele>381.5</ele><time>2026-04-11T06:27:28.129Z</time></trkpt><trkpt lat="45.7593617" lon="8.9682333"><ele>381.3333333333333</ele><time>2026-04-11T06:27:35.13Z</time></trkpt><trkpt lat="45.7592832" lon="8.9682281"><ele>381.1666666666667</ele><time>2026-04-11T06:27:41.13Z</time></trkpt><trkpt lat="45.75922" lon="8.9682458"><ele>381.0</ele><time>2026-04-11T06:27:45.243Z</time></trkpt><trkpt lat="45.7591549" lon="8.9682742"><ele>381.0</ele><time>2026-04-11T06:27:49.178Z</time></trkpt><trkpt lat="45.7590817" lon="8.9682912"><ele>381.0</ele><time>2026-04-11T06:27:54.053Z</time></trkpt><trkpt lat="45.7590182" lon="8.9683103"><ele>381.0</ele><time>2026-04-11T06:27:57.928Z</time></trkpt><trkpt lat="45.75896" lon="8.9683471"><ele>381.0</ele><time>2026-04-11T06:28:02.082Z</time></trkpt><trkpt lat="45.7589046" lon="8.9684022"><ele>381.0</ele><time>2026-04-11T06:28:06.326Z</time></trkpt><trkpt lat="45.7588489" lon="8.9684454"><ele>381.0</ele><time>2026-04-11T06:28:10.26Z</time></trkpt><trkpt lat="45.758784" lon="8.9684866"><ele>381.0</ele><time>2026-04-11T06:28:15.263Z</time></trkpt><trkpt lat="45.7587176" lon="8.9685144"><ele>380.57142857142856</ele><time>2026-04-11T06:28:20.093Z</time></trkpt><trkpt lat="45.7586533" lon="8.9685389"><ele>380.14285714285717</ele><time>2026-04-11T06:28:24.055Z</time></trkpt><trkpt lat="45.7585791" lon="8.9685662"><ele>379.7142857142857</ele><time>2026-04-11T06:28:28.974Z</time></trkpt><trkpt lat="45.7585166" lon="8.9685872"><ele>379.2857142857143</ele><time>2026-04-11T06:28:32.891Z</time></trkpt><trkpt lat="45.7584481" lon="8.9686296"><ele>378.8571428571429</ele><time>2026-04-11T06:28:37.133Z</time></trkpt><trkpt lat="45.7583869" lon="8.9686516"><ele>378.42857142857144</ele><time>2026-04-11T06:28:41.232Z</time></trkpt><trkpt lat="45.7583119" lon="8.9686525"><ele>378.0</ele><time>2026-04-11T06:28:46.231Z</time></trkpt><trkpt lat="45.7582441" lon="8.9686337"><ele>377.2857142857143</ele><time>2026-04-11T06:28:52.078Z</time></trkpt><trkpt lat="45.7581799" lon="8.9686118"><ele>376.57142857142856</ele><time>2026-04-11T06:28:58.975Z</time></trkpt><trkpt lat="45.7581109" lon="8.9686002"><ele>375.8571428571429</ele><time>2026-04-11T06:29:02.962Z</time></trkpt><trkpt lat="45.7580319" lon="8.968571"><ele>375.1428571428571</ele><time>2026-04-11T06:29:06.853Z</time></trkpt><trkpt lat="45.7579659" lon="8.9685449"><ele>374.42857142857144</ele><time>2026-04-11T06:29:10.834Z</time></trkpt><trkpt lat="45.7579029" lon="8.9685163"><ele>373.7142857142857</ele><time>2026-04-11T06:29:16.81Z</time></trkpt><trkpt lat="45.7578349" lon="8.9684952"><ele>373.0</ele><time>2026-04-11T06:29:24.21Z</time></trkpt><trkpt lat="45.7577895" lon="8.9684244"><ele>373.7142857142857</ele><time>2026-04-11T06:29:28.288Z</time></trkpt><trkpt lat="45.7577744" lon="8.9683136"><ele>374.42857142857144</ele><time>2026-04-11T06:29:32.593Z</time></trkpt><trkpt lat="45.7577643" lon="8.9682168"><ele>375.1428571428571</ele><time>2026-04-11T06:29:36.6Z</time></trkpt><trkpt lat="45.7577607" lon="8.9681072"><ele>375.8571428571429</ele><time>2026-04-11T06:29:41.564Z</time></trkpt><trkpt lat="45.7577548" lon="8.9679993"><ele>376.57142857142856</ele><time>2026-04-11T06:29:46.513Z</time></trkpt><trkpt lat="45.7577395" lon="8.9678924"><ele>377.2857142857143</ele><time>2026-04-11T06:29:51.432Z</time></trkpt><trkpt lat="45.7577326" lon="8.9677944"><ele>378.0</ele><time>2026-04-11T06:29:55.373Z</time></trkpt><trkpt lat="45.7577236" lon="8.9676986"><ele>378.0</ele><time>2026-04-11T06:30:00.316Z</time></trkpt><trkpt lat="45.7577225" lon="8.9675952"><ele>378.0</ele><time>2026-04-11T06:30:05.215Z</time></trkpt><trkpt lat="45.7577194" lon="8.967486"><ele>378.0</ele><time>2026-04-11T06:30:10.255Z</time></trkpt><trkpt lat="45.7577283" lon="8.9673788"><ele>378.0</ele><time>2026-04-11T06:30:16.073Z</time></trkpt><trkpt lat="45.7577403" lon="8.9672704"><ele>378.0</ele><time>2026-04-11T06:30:21.135Z</time></trkpt><trkpt lat="45.7577227" lon="8.9671645"><ele>378.0</ele><time>2026-04-11T06:30:25.986Z</time></trkpt><trkpt lat="45.7577203" lon="8.9670465"><ele>378.2857142857143</ele><time>2026-04-11T06:30:30.184Z</time></trkpt><trkpt lat="45.7576919" lon="8.9669452"><ele>378.57142857142856</ele><time>2026-04-11T06:30:34.192Z</time></trkpt><trkpt lat="45.7576291" lon="8.9668933"><ele>378.8571428571429</ele><time>2026-04-11T06:30:38.132Z</time></trkpt><trkpt lat="45.7575602" lon="8.966877"><ele>379.1428571428571</ele><time>2026-04-11T06:30:41.105Z</time></trkpt><trkpt lat="45.7575091" lon="8.9668006"><ele>379.42857142857144</ele><time>2026-04-11T06:30:48.233Z</time></trkpt><trkpt lat="45.7574823" lon="8.9667127"><ele>379.7142857142857</ele><time>2026-04-11T06:30:52.656Z</time></trkpt><trkpt lat="45.7574864" lon="8.9666203"><ele>380.0</ele><time>2026-04-11T06:31:00.706Z</time></trkpt><trkpt lat="45.7575221" lon="8.9665262"><ele>380.14285714285717</ele><time>2026-04-11T06:31:06.795Z</time></trkpt><trkpt lat="45.7575855" lon="8.9664869"><ele>380.28571428571433</ele><time>2026-04-11T06:31:10.934Z</time></trkpt><trkpt lat="45.7576557" lon="8.9664871"><ele>380.42857142857144</ele><time>2026-04-11T06:31:16.009Z</time></trkpt><trkpt lat="45.7577141" lon="8.966436"><ele>380.57142857142856</ele><time>2026-04-11T06:31:23.214Z</time></trkpt><trkpt lat="45.7577342" lon="8.9663357"><ele>380.7142857142857</ele><time>2026-04-11T06:31:28.647Z</time></trkpt><trkpt lat="45.7577452" lon="8.9662454"><ele>380.85714285714283</ele><time>2026-04-11T06:31:34.209Z</time></trkpt><trkpt lat="45.7577482" lon="8.966149"><ele>381.0</ele><time>2026-04-11T06:31:41.213Z</time></trkpt><trkpt lat="45.7577483" lon="8.9660492"><ele>381.0</ele><time>2026-04-11T06:31:50.131Z</time></trkpt><trkpt lat="45.757762" lon="8.9659499"><ele>381.0</ele><time>2026-04-11T06:31:58.146Z</time></trkpt><trkpt lat="45.7577741" lon="8.9658537"><ele>381.0</ele><time>2026-04-11T06:32:04.11Z</time></trkpt><trkpt lat="45.7577896" lon="8.9657589"><ele>381.0</ele><time>2026-04-11T06:32:09.141Z</time></trkpt><trkpt lat="45.7578041" lon="8.9656642"><ele>381.0</ele><time>2026-04-11T06:32:14.14Z</time></trkpt><trkpt lat="45.7578248" lon="8.9655627"><ele>381.0</ele><time>2026-04-11T06:32:20.136Z</time></trkpt><trkpt lat="45.7578215" lon="8.9654697"><ele>381.0</ele><time>2026-04-11T06:32:24.248Z</time></trkpt><trkpt lat="45.7578122" lon="8.9653612"><ele>381.7142857142857</ele><time>2026-04-11T06:32:28.154Z</time></trkpt><trkpt lat="45.7577778" lon="8.9652843"><ele>382.42857142857144</ele><time>2026-04-11T06:32:33.143Z</time></trkpt><trkpt lat="45.7577109" lon="8.9652386"><ele>383.14285714285717</ele><time>2026-04-11T06:32:39.149Z</time></trkpt><trkpt lat="45.7576322" lon="8.9652504"><ele>383.8571428571429</ele><time>2026-04-11T06:32:44.121Z</time></trkpt><trkpt lat="45.7575641" lon="8.965274"><ele>384.57142857142856</ele><time>2026-04-11T06:32:48.197Z</time></trkpt><trkpt lat="45.7575052" lon="8.9653314"><ele>385.28571428571433</ele><time>2026-04-11T06:32:53.13Z</time></trkpt><trkpt lat="45.7574423" lon="8.9653655"><ele>386.0</ele><time>2026-04-11T06:32:59.789Z</time></trkpt><trkpt lat="45.7573687" lon="8.9653742"><ele>386.5714285714286</ele><time>2026-04-11T06:33:10.216Z</time></trkpt><trkpt lat="45.7572976" lon="8.9653506"><ele>387.14285714285717</ele><time>2026-04-11T06:33:15.131Z</time></trkpt><trkpt lat="45.7572348" lon="8.9653422"><ele>387.7142857142857</ele><time>2026-04-11T06:33:18.844Z</time></trkpt><trkpt lat="45.7571738" lon="8.9652951"><ele>388.28571428571433</ele><time>2026-04-11T06:33:24.156Z</time></trkpt><trkpt lat="45.7571226" lon="8.9652426"><ele>388.85714285714283</ele><time>2026-04-11T06:33:29.202Z</time></trkpt><trkpt lat="45.7570622" lon="8.9651873"><ele>389.42857142857144</ele><time>2026-04-11T06:33:34.13Z</time></trkpt><trkpt lat="45.756996" lon="8.9651356"><ele>390.0</ele><time>2026-04-11T06:33:39.167Z</time></trkpt><trkpt lat="45.7569688" lon="8.9650318"><ele>390.2857142857143</ele><time>2026-04-11T06:33:44.205Z</time></trkpt><trkpt lat="45.7569633" lon="8.9649409"><ele>390.57142857142856</ele><time>2026-04-11T06:33:48.176Z</time></trkpt><trkpt lat="45.7569482" lon="8.9648416"><ele>390.8571428571429</ele><time>2026-04-11T06:33:53.236Z</time></trkpt><trkpt lat="45.7569122" lon="8.9647647"><ele>391.1428571428571</ele><time>2026-04-11T06:33:58.131Z</time></trkpt><trkpt lat="45.7568549" lon="8.9646944"><ele>391.42857142857144</ele><time>2026-04-11T06:34:03.218Z</time></trkpt><trkpt lat="45.7567831" lon="8.9646599"><ele>391.7142857142857</ele><time>2026-04-11T06:34:07.13Z</time></trkpt><trkpt lat="45.7567072" lon="8.9646274"><ele>392.0</ele><time>2026-04-11T06:34:13.181Z</time></trkpt><trkpt lat="45.7566334" lon="8.964622"><ele>391.2857142857143</ele><time>2026-04-11T06:34:18.161Z</time></trkpt><trkpt lat="45.7565672" lon="8.964632"><ele>390.57142857142856</ele><time>2026-04-11T06:34:22.276Z</time></trkpt><trkpt lat="45.7564976" lon="8.9646675"><ele>389.8571428571429</ele><time>2026-04-11T06:34:27.154Z</time></trkpt><trkpt lat="45.75643" lon="8.9647209"><ele>389.1428571428571</ele><time>2026-04-11T06:34:33.131Z</time></trkpt><trkpt lat="45.7563711" lon="8.9647627"><ele>388.42857142857144</ele><time>2026-04-11T06:34:37.096Z</time></trkpt><trkpt lat="45.7562952" lon="8.9648233"><ele>387.7142857142857</ele><time>2026-04-11T06:34:41.134Z</time></trkpt><trkpt lat="45.756234" lon="8.9648952"><ele>387.0</ele><time>2026-04-11T06:34:45.135Z</time></trkpt><trkpt lat="45.7561728" lon="8.9649534"><ele>387.0</ele><time>2026-04-11T06:34:49.144Z</time></trkpt><trkpt lat="45.7561109" lon="8.9650255"><ele>387.0</ele><time>2026-04-11T06:34:54.085Z</time></trkpt><trkpt lat="45.7560699" lon="8.9650977"><ele>387.0</ele><time>2026-04-11T06:34:59.176Z</time></trkpt><trkpt lat="45.7560143" lon="8.9651587"><ele>387.0</ele><time>2026-04-11T06:35:04.147Z</time></trkpt><trkpt lat="45.7559654" lon="8.9652274"><ele>387.0</ele><time>2026-04-11T06:35:09.152Z</time></trkpt><trkpt lat="45.7559019" lon="8.9652722"><ele>387.0</ele><time>2026-04-11T06:35:14.225Z</time></trkpt><trkpt lat="45.7558396" lon="8.9652922"><ele>387.0</ele><time>2026-04-11T06:35:19.15Z</time></trkpt><trkpt lat="45.7557725" lon="8.9653114"><ele>386.57142857142856</ele><time>2026-04-11T06:35:25.26Z</time></trkpt><trkpt lat="45.7557007" lon="8.9653367"><ele>386.14285714285717</ele><time>2026-04-11T06:35:30.145Z</time></trkpt><trkpt lat="45.7556406" lon="8.9653689"><ele>385.71428571428567</ele><time>2026-04-11T06:35:34.153Z</time></trkpt><trkpt lat="45.7555666" lon="8.9653646"><ele>385.2857142857143</ele><time>2026-04-11T06:35:39.149Z</time></trkpt><trkpt lat="45.7555033" lon="8.9653718"><ele>384.85714285714283</ele><time>2026-04-11T06:35:44.2Z</time></trkpt><trkpt lat="45.7554412" lon="8.9653443"><ele>384.4285714285714</ele><time>2026-04-11T06:35:49.287Z</time></trkpt><trkpt lat="45.7553824" lon="8.965284"><ele>384.0</ele><time>2026-04-11T06:35:56.17Z</time></trkpt><trkpt lat="45.7553308" lon="8.9652244"><ele>383.99999999999994</ele><time>2026-04-11T06:36:01.181Z</time></trkpt><trkpt lat="45.7552629" lon="8.9651891"><ele>384.0</ele><time>2026-04-11T06:36:06.131Z</time></trkpt><trkpt lat="45.7551983" lon="8.9651953"><ele>384.0</ele><time>2026-04-11T06:36:10.13Z</time></trkpt><trkpt lat="45.7551344" lon="8.9651975"><ele>384.0</ele><time>2026-04-11T06:36:15.041Z</time></trkpt><trkpt lat="45.7550618" lon="8.9652086"><ele>384.0</ele><time>2026-04-11T06:36:20.115Z</time></trkpt><trkpt lat="45.7549907" lon="8.9652374"><ele>383.99999999999994</ele><time>2026-04-11T06:36:24.246Z</time></trkpt><trkpt lat="45.754923" lon="8.9652837"><ele>384.0</ele><time>2026-04-11T06:36:29.253Z</time></trkpt><trkpt lat="45.7548556" lon="8.9653353"><ele>383.85714285714283</ele><time>2026-04-11T06:36:34.165Z</time></trkpt><trkpt lat="45.7547961" lon="8.9653883"><ele>383.7142857142857</ele><time>2026-04-11T06:36:39.129Z</time></trkpt><trkpt lat="45.7547427" lon="8.9654589"><ele>383.57142857142856</ele><time>2026-04-11T06:36:45.134Z</time></trkpt><trkpt lat="45.7546886" lon="8.9655247"><ele>383.42857142857144</ele><time>2026-04-11T06:36:50.2Z</time></trkpt><trkpt lat="45.7546391" lon="8.9655837"><ele>383.2857142857143</ele><time>2026-04-11T06:36:54.13Z</time></trkpt><trkpt lat="45.7545889" lon="8.9656582"><ele>383.1428571428571</ele><time>2026-04-11T06:36:59.112Z</time></trkpt><trkpt lat="45.7545434" lon="8.9657483"><ele>383.0</ele><time>2026-04-11T06:37:05.236Z</time></trkpt><trkpt lat="45.7545022" lon="8.9658288"><ele>382.7142857142857</ele><time>2026-04-11T06:37:09.47Z</time></trkpt><trkpt lat="45.7544562" lon="8.9658951"><ele>382.42857142857144</ele><time>2026-04-11T06:37:13.573Z</time></trkpt><trkpt lat="45.7544054" lon="8.9659676"><ele>382.1428571428571</ele><time>2026-04-11T06:37:18.143Z</time></trkpt><trkpt lat="45.7543683" lon="8.9660639"><ele>381.8571428571429</ele><time>2026-04-11T06:37:24.13Z</time></trkpt><trkpt lat="45.7543802" lon="8.9661587"><ele>381.5714285714286</ele><time>2026-04-11T06:37:26.159Z</time></trkpt><trkpt lat="45.7543307" lon="8.9660942"><ele>381.2857142857143</ele><time>2026-04-11T06:37:39.122Z</time></trkpt><trkpt lat="45.754306" lon="8.9659915"><ele>381.0</ele><time>2026-04-11T06:37:44.247Z</time></trkpt><trkpt lat="45.754275" lon="8.9658987"><ele>381.0</ele><time>2026-04-11T06:37:49.179Z</time></trkpt><trkpt lat="45.7542435" lon="8.9658128"><ele>381.0</ele><time>2026-04-11T06:37:54.13Z</time></trkpt><trkpt lat="45.7542045" lon="8.9657291"><ele>381.0</ele><time>2026-04-11T06:37:59.143Z</time></trkpt><trkpt lat="45.7541706" lon="8.965652"><ele>381.0</ele><time>2026-04-11T06:38:04.182Z</time></trkpt><trkpt lat="45.7541422" lon="8.9655665"><ele>381.0</ele><time>2026-04-11T06:38:10.081Z</time></trkpt><trkpt lat="45.754125" lon="8.9654614"><ele>381.0</ele><time>2026-04-11T06:38:16.128Z</time></trkpt><trkpt lat="45.7541182" lon="8.96535"><ele>381.0</ele><time>2026-04-11T06:38:21.258Z</time></trkpt><trkpt lat="45.7541104" lon="8.9652426"><ele>381.0</ele><time>2026-04-11T06:38:26.17Z</time></trkpt><trkpt lat="45.754113" lon="8.9651467"><ele>381.0</ele><time>2026-04-11T06:38:32.09Z</time></trkpt><trkpt lat="45.7541095" lon="8.965046"><ele>381.0</ele><time>2026-04-11T06:38:38.195Z</time></trkpt><trkpt lat="45.7541132" lon="8.9649361"><ele>381.0</ele><time>2026-04-11T06:38:43.13Z</time></trkpt><trkpt lat="45.7541011" lon="8.964838"><ele>381.0</ele><time>2026-04-11T06:38:48.222Z</time></trkpt><trkpt lat="45.7540893" lon="8.9647362"><ele>381.0</ele><time>2026-04-11T06:38:53.199Z</time></trkpt><trkpt lat="45.7540751" lon="8.9646344"><ele>381.0</ele><time>2026-04-11T06:38:58.131Z</time></trkpt><trkpt lat="45.7540378" lon="8.9645545"><ele>382.0</ele><time>2026-04-11T06:39:02.131Z</time></trkpt><trkpt lat="45.7539617" lon="8.9645349"><ele>383.0</ele><time>2026-04-11T06:39:07.038Z</time></trkpt><trkpt lat="45.7538992" lon="8.9645093"><ele>384.0</ele><time>2026-04-11T06:39:11.205Z</time></trkpt><trkpt lat="45.7538281" lon="8.9644987"><ele>385.0</ele><time>2026-04-11T06:39:17.133Z</time></trkpt><trkpt lat="45.7537569" lon="8.9645048"><ele>386.0</ele><time>2026-04-11T06:39:22.101Z</time></trkpt><trkpt lat="45.7536898" lon="8.9645205"><ele>387.0</ele><time>2026-04-11T06:39:26.213Z</time></trkpt><trkpt lat="45.7536337" lon="8.9645668"><ele>388.0</ele><time>2026-04-11T06:39:30.189Z</time></trkpt><trkpt lat="45.7535805" lon="8.9646309"><ele>388.2857142857143</ele><time>2026-04-11T06:39:35.131Z</time></trkpt><trkpt lat="45.7535177" lon="8.9646806"><ele>388.5714285714286</ele><time>2026-04-11T06:39:41.071Z</time></trkpt><trkpt lat="45.7534432" lon="8.9647106"><ele>388.8571428571429</ele><time>2026-04-11T06:39:46.12Z</time></trkpt><trkpt lat="45.7533816" lon="8.9647465"><ele>389.1428571428571</ele><time>2026-04-11T06:39:51.176Z</time></trkpt><trkpt lat="45.7533101" lon="8.9648037"><ele>389.42857142857144</ele><time>2026-04-11T06:39:58.913Z</time></trkpt><trkpt lat="45.7532521" lon="8.9648659"><ele>389.7142857142857</ele><time>2026-04-11T06:40:03.955Z</time></trkpt><trkpt lat="45.7531942" lon="8.9649323"><ele>390.0</ele><time>2026-04-11T06:40:09.131Z</time></trkpt><trkpt lat="45.7531401" lon="8.9649885"><ele>390.1428571428571</ele><time>2026-04-11T06:40:13.135Z</time></trkpt><trkpt lat="45.7530769" lon="8.9650386"><ele>390.2857142857143</ele><time>2026-04-11T06:40:17.103Z</time></trkpt><trkpt lat="45.7530234" lon="8.9650983"><ele>390.42857142857144</ele><time>2026-04-11T06:40:21.12Z</time></trkpt><trkpt lat="45.7529766" lon="8.9651594"><ele>390.57142857142856</ele><time>2026-04-11T06:40:24.151Z</time></trkpt><trkpt lat="45.7529272" lon="8.9652194"><ele>390.7142857142857</ele><time>2026-04-11T06:40:28.137Z</time></trkpt><trkpt lat="45.7528724" lon="8.9652945"><ele>390.85714285714283</ele><time>2026-04-11T06:40:34.13Z</time></trkpt><trkpt lat="45.7528305" lon="8.9653793"><ele>391.0</ele><time>2026-04-11T06:40:38.216Z</time></trkpt><trkpt lat="45.7527982" lon="8.9654827"><ele>390.99999999999994</ele><time>2026-04-11T06:40:43.139Z</time></trkpt><trkpt lat="45.7527637" lon="8.9655729"><ele>391.0</ele><time>2026-04-11T06:40:47.135Z</time></trkpt><trkpt lat="45.7527339" lon="8.9656638"><ele>391.0</ele><time>2026-04-11T06:40:51.149Z</time></trkpt><trkpt lat="45.7527207" lon="8.9657662"><ele>391.0</ele><time>2026-04-11T06:40:57.234Z</time></trkpt><trkpt lat="45.7526848" lon="8.9658571"><ele>391.0</ele><time>2026-04-11T06:41:04.131Z</time></trkpt><trkpt lat="45.7526386" lon="8.9659228"><ele>390.99999999999994</ele><time>2026-04-11T06:41:08.13Z</time></trkpt><trkpt lat="45.7525783" lon="8.9659907"><ele>391.0</ele><time>2026-04-11T06:41:12.134Z</time></trkpt><trkpt lat="45.7525235" lon="8.9660667"><ele>391.2857142857143</ele><time>2026-04-11T06:41:16.243Z</time></trkpt><trkpt lat="45.7524729" lon="8.9661336"><ele>391.57142857142856</ele><time>2026-04-11T06:41:21.161Z</time></trkpt><trkpt lat="45.7524049" lon="8.9661907"><ele>391.8571428571429</ele><time>2026-04-11T06:41:26.132Z</time></trkpt><trkpt lat="45.752338" lon="8.9662038"><ele>392.1428571428571</ele><time>2026-04-11T06:41:31.131Z</time></trkpt><trkpt lat="45.7522677" lon="8.9662143"><ele>392.42857142857144</ele><time>2026-04-11T06:41:36.132Z</time></trkpt><trkpt lat="45.7521942" lon="8.9662351"><ele>392.7142857142857</ele><time>2026-04-11T06:41:41.153Z</time></trkpt><trkpt lat="45.7521204" lon="8.9662573"><ele>393.0</ele><time>2026-04-11T06:41:47.309Z</time></trkpt><trkpt lat="45.7520523" lon="8.9662874"><ele>393.00000000000006</ele><time>2026-04-11T06:41:52.322Z</time></trkpt><trkpt lat="45.7519745" lon="8.9663208"><ele>393.0</ele><time>2026-04-11T06:41:57.13Z</time></trkpt><trkpt lat="45.7519129" lon="8.9663396"><ele>393.0</ele><time>2026-04-11T06:42:00.173Z</time></trkpt><trkpt lat="45.7518381" lon="8.9663762"><ele>393.0</ele><time>2026-04-11T06:42:04.253Z</time></trkpt><trkpt lat="45.7517734" lon="8.9664385"><ele>393.0</ele><time>2026-04-11T06:42:09.415Z</time></trkpt><trkpt lat="45.7517125" lon="8.9664974"><ele>393.00000000000006</ele><time>2026-04-11T06:42:14.573Z</time></trkpt><trkpt lat="45.7516625" lon="8.9665539"><ele>393.0</ele><time>2026-04-11T06:42:19.526Z</time></trkpt><trkpt lat="45.7516018" lon="8.9666252"><ele>392.5714285714286</ele><time>2026-04-11T06:42:24.613Z</time></trkpt><trkpt lat="45.7515343" lon="8.9666789"><ele>392.14285714285717</ele><time>2026-04-11T06:42:29.9Z</time></trkpt><trkpt lat="45.7514985" lon="8.9667586"><ele>391.7142857142857</ele><time>2026-04-11T06:42:34.13Z</time></trkpt><trkpt lat="45.7514618" lon="8.9668373"><ele>391.28571428571433</ele><time>2026-04-11T06:42:39.174Z</time></trkpt><trkpt lat="45.7514133" lon="8.96691"><ele>390.85714285714283</ele><time>2026-04-11T06:42:45.22Z</time></trkpt><trkpt lat="45.7513507" lon="8.9669587"><ele>390.42857142857144</ele><time>2026-04-11T06:42:50.547Z</time></trkpt><trkpt lat="45.7512938" lon="8.9670312"><ele>390.0</ele><time>2026-04-11T06:42:55.74Z</time></trkpt><trkpt lat="45.7512485" lon="8.9671202"><ele>389.6666666666667</ele><time>2026-04-11T06:43:01.853Z</time></trkpt><trkpt lat="45.7512098" lon="8.9672119"><ele>389.33333333333337</ele><time>2026-04-11T06:43:05.966Z</time></trkpt><trkpt lat="45.7511498" lon="8.9672867"><ele>389.0</ele><time>2026-04-11T06:43:11.213Z</time></trkpt><trkpt lat="45.7510876" lon="8.9673152"><ele>388.6666666666667</ele><time>2026-04-11T06:43:15.224Z</time></trkpt><trkpt lat="45.7510096" lon="8.9673417"><ele>388.33333333333337</ele><time>2026-04-11T06:43:19.131Z</time></trkpt><trkpt lat="45.7509303" lon="8.9673618"><ele>388.0</ele><time>2026-04-11T06:43:23.13Z</time></trkpt><trkpt lat="45.750855" lon="8.9673859"><ele>387.1428571428571</ele><time>2026-04-11T06:43:26.953Z</time></trkpt><trkpt lat="45.7507909" lon="8.9673928"><ele>386.28571428571433</ele><time>2026-04-11T06:43:30.076Z</time></trkpt><trkpt lat="45.7507197" lon="8.9674119"><ele>385.42857142857144</ele><time>2026-04-11T06:43:34.154Z</time></trkpt><trkpt lat="45.7506528" lon="8.9674496"><ele>384.57142857142856</ele><time>2026-04-11T06:43:38.234Z</time></trkpt><trkpt lat="45.7505788" lon="8.967482"><ele>383.71428571428567</ele><time>2026-04-11T06:43:43.167Z</time></trkpt><trkpt lat="45.7505186" lon="8.9675248"><ele>382.8571428571429</ele><time>2026-04-11T06:43:48.413Z</time></trkpt><trkpt lat="45.7504456" lon="8.9675467"><ele>382.0</ele><time>2026-04-11T06:43:54.871Z</time></trkpt><trkpt lat="45.7503794" lon="8.9675515"><ele>380.8571428571429</ele><time>2026-04-11T06:44:00.129Z</time></trkpt><trkpt lat="45.7503079" lon="8.9675793"><ele>379.71428571428567</ele><time>2026-04-11T06:44:06.785Z</time></trkpt><trkpt lat="45.7502465" lon="8.9676385"><ele>378.57142857142856</ele><time>2026-04-11T06:44:15.232Z</time></trkpt><trkpt lat="45.7501885" lon="8.9676872"><ele>377.42857142857144</ele><time>2026-04-11T06:44:21.187Z</time></trkpt><trkpt lat="45.7501368" lon="8.9677434"><ele>376.28571428571433</ele><time>2026-04-11T06:44:28.238Z</time></trkpt><trkpt lat="45.7500731" lon="8.9677974"><ele>375.1428571428571</ele><time>2026-04-11T06:44:36.144Z</time></trkpt><trkpt lat="45.750012" lon="8.9678254"><ele>374.0</ele><time>2026-04-11T06:44:41.33Z</time></trkpt><trkpt lat="45.7499477" lon="8.9678649"><ele>372.7142857142857</ele><time>2026-04-11T06:44:47.515Z</time></trkpt><trkpt lat="45.7498911" lon="8.9679066"><ele>371.42857142857144</ele><time>2026-04-11T06:44:54.548Z</time></trkpt><trkpt lat="45.749827" lon="8.9679269"><ele>370.14285714285717</ele><time>2026-04-11T06:44:59.669Z</time></trkpt><trkpt lat="45.7497543" lon="8.96793"><ele>368.8571428571429</ele><time>2026-04-11T06:45:05.915Z</time></trkpt><trkpt lat="45.7496967" lon="8.9679734"><ele>367.57142857142856</ele><time>2026-04-11T06:45:13.181Z</time></trkpt><trkpt lat="45.7496275" lon="8.9680083"><ele>366.28571428571433</ele><time>2026-04-11T06:45:19.092Z</time></trkpt><trkpt lat="45.7495606" lon="8.9680106"><ele>365.0</ele><time>2026-04-11T06:45:23.144Z</time></trkpt><trkpt lat="45.7495103" lon="8.9680716"><ele>365.00000000000006</ele><time>2026-04-11T06:45:27.207Z</time></trkpt><trkpt lat="45.7494568" lon="8.968138"><ele>365.0</ele><time>2026-04-11T06:45:33.109Z</time></trkpt><trkpt lat="45.7494266" lon="8.9682424"><ele>365.0</ele><time>2026-04-11T06:45:38.09Z</time></trkpt><trkpt lat="45.749392" lon="8.9683226"><ele>365.0</ele><time>2026-04-11T06:45:41.049Z</time></trkpt><trkpt lat="45.7493349" lon="8.9683845"><ele>365.0</ele><time>2026-04-11T06:45:45.254Z</time></trkpt><trkpt lat="45.749279" lon="8.9684322"><ele>365.00000000000006</ele><time>2026-04-11T06:45:49.523Z</time></trkpt><trkpt lat="45.7492255" lon="8.9684895"><ele>365.0</ele><time>2026-04-11T06:45:54.616Z</time></trkpt><trkpt lat="45.7491676" lon="8.9685401"><ele>366.28571428571433</ele><time>2026-04-11T06:46:00.773Z</time></trkpt><trkpt lat="45.7491068" lon="8.9685698"><ele>367.57142857142856</ele><time>2026-04-11T06:46:05.764Z</time></trkpt><trkpt lat="45.7490534" lon="8.9686347"><ele>368.8571428571429</ele><time>2026-04-11T06:46:10.813Z</time></trkpt><trkpt lat="45.7489999" lon="8.9686909"><ele>370.14285714285717</ele><time>2026-04-11T06:46:14.815Z</time></trkpt><trkpt lat="45.7489421" lon="8.9687364"><ele>371.42857142857144</ele><time>2026-04-11T06:46:18.872Z</time></trkpt><trkpt lat="45.7488754" lon="8.9687993"><ele>372.7142857142857</ele><time>2026-04-11T06:46:23.911Z</time></trkpt><trkpt lat="45.7488152" lon="8.9688375"><ele>374.0</ele><time>2026-04-11T06:46:27.924Z</time></trkpt><trkpt lat="45.7487556" lon="8.968887"><ele>374.0</ele><time>2026-04-11T06:46:33.116Z</time></trkpt><trkpt lat="45.7486917" lon="8.9689309"><ele>374.0</ele><time>2026-04-11T06:46:39.193Z</time></trkpt><trkpt lat="45.7486189" lon="8.9689741"><ele>374.0</ele><time>2026-04-11T06:46:44.255Z</time></trkpt><trkpt lat="45.748551" lon="8.9689937"><ele>374.0</ele><time>2026-04-11T06:46:48.13Z</time></trkpt><trkpt lat="45.7484741" lon="8.9690095"><ele>374.0</ele><time>2026-04-11T06:46:52.13Z</time></trkpt><trkpt lat="45.7484027" lon="8.9690297"><ele>374.0</ele><time>2026-04-11T06:46:57.288Z</time></trkpt><trkpt lat="45.7483363" lon="8.9690712"><ele>374.0</ele><time>2026-04-11T06:47:03.237Z</time></trkpt><trkpt lat="45.7482762" lon="8.9690981"><ele>373.57142857142856</ele><time>2026-04-11T06:47:08.045Z</time></trkpt><trkpt lat="45.7482116" lon="8.9691181"><ele>373.14285714285717</ele><time>2026-04-11T06:47:12.095Z</time></trkpt><trkpt lat="45.7481313" lon="8.969138"><ele>372.7142857142857</ele><time>2026-04-11T06:47:16.115Z</time></trkpt><trkpt lat="45.7480646" lon="8.9691527"><ele>372.2857142857143</ele><time>2026-04-11T06:47:19.156Z</time></trkpt><trkpt lat="45.7479848" lon="8.9691646"><ele>371.8571428571429</ele><time>2026-04-11T06:47:23.043Z</time></trkpt><trkpt lat="45.7479167" lon="8.9691791"><ele>371.42857142857144</ele><time>2026-04-11T06:47:26.142Z</time></trkpt><trkpt lat="45.7478514" lon="8.9691938"><ele>371.0</ele><time>2026-04-11T06:47:29.013Z</time></trkpt><trkpt lat="45.7477826" lon="8.9692097"><ele>371.42857142857144</ele><time>2026-04-11T06:47:32.128Z</time></trkpt><trkpt lat="45.7477192" lon="8.969254"><ele>371.8571428571429</ele><time>2026-04-11T06:47:35.202Z</time></trkpt><trkpt lat="45.7476501" lon="8.9693083"><ele>372.2857142857143</ele><time>2026-04-11T06:47:39.196Z</time></trkpt><trkpt lat="45.7475895" lon="8.9693649"><ele>372.7142857142857</ele><time>2026-04-11T06:47:43.138Z</time></trkpt><trkpt lat="45.7475252" lon="8.9693933"><ele>373.14285714285717</ele><time>2026-04-11T06:47:47.13Z</time></trkpt><trkpt lat="45.7474586" lon="8.9694285"><ele>373.57142857142856</ele><time>2026-04-11T06:47:51.129Z</time></trkpt><trkpt lat="45.7473935" lon="8.9694738"><ele>374.0</ele><time>2026-04-11T06:47:55.13Z</time></trkpt><trkpt lat="45.7473428" lon="8.9695398"><ele>374.0</ele><time>2026-04-11T06:47:59.13Z</time></trkpt><trkpt lat="45.7472935" lon="8.9696251"><ele>374.0</ele><time>2026-04-11T06:48:03.248Z</time></trkpt><trkpt lat="45.7472437" lon="8.9696823"><ele>374.0</ele><time>2026-04-11T06:48:07.166Z</time></trkpt><trkpt lat="45.74718" lon="8.9697482"><ele>374.0</ele><time>2026-04-11T06:48:11.181Z</time></trkpt><trkpt lat="45.7471219" lon="8.96981"><ele>374.0</ele><time>2026-04-11T06:48:15.159Z</time></trkpt><trkpt lat="45.7470561" lon="8.9698533"><ele>374.0</ele><time>2026-04-11T06:48:21.13Z</time></trkpt><trkpt lat="45.7469951" lon="8.9698797"><ele>374.0</ele><time>2026-04-11T06:48:26.153Z</time></trkpt><trkpt lat="45.7469363" lon="8.9699336"><ele>372.1428571428571</ele><time>2026-04-11T06:48:31.001Z</time></trkpt><trkpt lat="45.7468627" lon="8.9699513"><ele>370.28571428571433</ele><time>2026-04-11T06:48:35.985Z</time></trkpt><trkpt lat="45.7467986" lon="8.9699718"><ele>368.42857142857144</ele><time>2026-04-11T06:48:39.99Z</time></trkpt><trkpt lat="45.7467315" lon="8.9699783"><ele>366.57142857142856</ele><time>2026-04-11T06:48:44.133Z</time></trkpt><trkpt lat="45.7466646" lon="8.9699853"><ele>364.71428571428567</ele><time>2026-04-11T06:48:48.034Z</time></trkpt><trkpt lat="45.7465945" lon="8.9700044"><ele>362.8571428571429</ele><time>2026-04-11T06:48:52.093Z</time></trkpt><trkpt lat="45.7465164" lon="8.9700049"><ele>361.0</ele><time>2026-04-11T06:48:57.114Z</time></trkpt><trkpt lat="45.7464503" lon="8.9700156"><ele>361.42857142857144</ele><time>2026-04-11T06:49:01.132Z</time></trkpt><trkpt lat="45.7463733" lon="8.9700378"><ele>361.85714285714283</ele><time>2026-04-11T06:49:06.13Z</time></trkpt><trkpt lat="45.7463091" lon="8.9700717"><ele>362.2857142857143</ele><time>2026-04-11T06:49:10.146Z</time></trkpt><trkpt lat="45.7462384" lon="8.9701071"><ele>362.7142857142857</ele><time>2026-04-11T06:49:15.168Z</time></trkpt><trkpt lat="45.7461741" lon="8.9701481"><ele>363.1428571428571</ele><time>2026-04-11T06:49:19.176Z</time></trkpt><trkpt lat="45.7461212" lon="8.9701973"><ele>363.57142857142856</ele><time>2026-04-11T06:49:23.232Z</time></trkpt><trkpt lat="45.7460416" lon="8.9702601"><ele>364.0</ele><time>2026-04-11T06:49:53.131Z</time></trkpt><trkpt lat="45.7459652" lon="8.9703025"><ele>364.0</ele><time>2026-04-11T06:49:57.197Z</time></trkpt><trkpt lat="45.7459038" lon="8.9703347"><ele>364.0</ele><time>2026-04-11T06:50:00.256Z</time></trkpt><trkpt lat="45.7458391" lon="8.9703603"><ele>364.0</ele><time>2026-04-11T06:50:04.183Z</time></trkpt><trkpt lat="45.7457803" lon="8.9703967"><ele>364.0</ele><time>2026-04-11T06:50:08.131Z</time></trkpt><trkpt lat="45.7457209" lon="8.9704373"><ele>364.0</ele><time>2026-04-11T06:50:12.262Z</time></trkpt><trkpt lat="45.7456496" lon="8.970448"><ele>364.0</ele><time>2026-04-11T06:50:17.121Z</time></trkpt><trkpt lat="45.7455823" lon="8.9704852"><ele>364.0</ele><time>2026-04-11T06:50:22.174Z</time></trkpt><trkpt lat="45.7455255" lon="8.9705246"><ele>364.0</ele><time>2026-04-11T06:50:26.107Z</time></trkpt><trkpt lat="45.745457" lon="8.9705602"><ele>364.0</ele><time>2026-04-11T06:50:31.098Z</time></trkpt><trkpt lat="45.7454012" lon="8.9706043"><ele>364.0</ele><time>2026-04-11T06:50:35.087Z</time></trkpt><trkpt lat="45.7453359" lon="8.970633"><ele>364.0</ele><time>2026-04-11T06:50:39.154Z</time></trkpt><trkpt lat="45.745259" lon="8.9706292"><ele>364.0</ele><time>2026-04-11T06:50:44.193Z</time></trkpt><trkpt lat="45.7451836" lon="8.9706468"><ele>364.0</ele><time>2026-04-11T06:50:49.187Z</time></trkpt><trkpt lat="45.7451164" lon="8.9706459"><ele>364.0</ele><time>2026-04-11T06:50:53.153Z</time></trkpt><trkpt lat="45.7450506" lon="8.9705931"><ele>363.42857142857144</ele><time>2026-04-11T06:50:58.192Z</time></trkpt><trkpt lat="45.7450004" lon="8.9705268"><ele>362.8571428571429</ele><time>2026-04-11T06:51:03.215Z</time></trkpt><trkpt lat="45.744947" lon="8.9704695"><ele>362.2857142857143</ele><time>2026-04-11T06:51:08.2Z</time></trkpt><trkpt lat="45.7448857" lon="8.9704055"><ele>361.7142857142857</ele><time>2026-04-11T06:51:13.13Z</time></trkpt><trkpt lat="45.744835" lon="8.9703513"><ele>361.14285714285717</ele><time>2026-04-11T06:51:17.017Z</time></trkpt><trkpt lat="45.7447718" lon="8.9702954"><ele>360.57142857142856</ele><time>2026-04-11T06:51:22.171Z</time></trkpt><trkpt lat="45.7447085" lon="8.9702745"><ele>360.0</ele><time>2026-04-11T06:51:26.248Z</time></trkpt><trkpt lat="45.7446449" lon="8.9702618"><ele>360.0</ele><time>2026-04-11T06:51:30.239Z</time></trkpt><trkpt lat="45.7445775" lon="8.9702445"><ele>360.0</ele><time>2026-04-11T06:51:34.294Z</time></trkpt><trkpt lat="45.7445026" lon="8.9702301"><ele>360.0</ele><time>2026-04-11T06:51:38.788Z</time></trkpt><trkpt lat="45.7444193" lon="8.970231"><ele>360.0</ele><time>2026-04-11T06:51:42.753Z</time></trkpt><trkpt lat="45.7443565" lon="8.9702382"><ele>360.0</ele><time>2026-04-11T06:51:45.893Z</time></trkpt><trkpt lat="45.7442808" lon="8.970255"><ele>360.0</ele><time>2026-04-11T06:51:49.857Z</time></trkpt><trkpt lat="45.7442148" lon="8.9702831"><ele>360.0</ele><time>2026-04-11T06:51:53.958Z</time></trkpt><trkpt lat="45.7441521" lon="8.9703119"><ele>359.1428571428571</ele><time>2026-04-11T06:51:58.017Z</time></trkpt><trkpt lat="45.7440888" lon="8.9703393"><ele>358.28571428571433</ele><time>2026-04-11T06:52:01.98Z</time></trkpt><trkpt lat="45.7440263" lon="8.9703676"><ele>357.42857142857144</ele><time>2026-04-11T06:52:06.039Z</time></trkpt><trkpt lat="45.7439525" lon="8.9703821"><ele>356.57142857142856</ele><time>2026-04-11T06:52:11.074Z</time></trkpt><trkpt lat="45.7438827" lon="8.9703888"><ele>355.71428571428567</ele><time>2026-04-11T06:52:16.19Z</time></trkpt><trkpt lat="45.7438079" lon="8.9703845"><ele>354.8571428571429</ele><time>2026-04-11T06:52:21.15Z</time></trkpt><trkpt lat="45.7437359" lon="8.9703842"><ele>354.0</ele><time>2026-04-11T06:52:25.158Z</time></trkpt><trkpt lat="45.7436631" lon="8.9703885"><ele>354.0</ele><time>2026-04-11T06:52:29.167Z</time></trkpt><trkpt lat="45.7435877" lon="8.9703841"><ele>354.0</ele><time>2026-04-11T06:52:34.071Z</time></trkpt><trkpt lat="45.7435135" lon="8.9703739"><ele>354.0</ele><time>2026-04-11T06:52:39.186Z</time></trkpt><trkpt lat="45.7434386" lon="8.9703582"><ele>354.0</ele><time>2026-04-11T06:52:44.169Z</time></trkpt><trkpt lat="45.7433729" lon="8.9703588"><ele>354.0</ele><time>2026-04-11T06:52:48.177Z</time></trkpt><trkpt lat="45.7433056" lon="8.9703946"><ele>354.0</ele><time>2026-04-11T06:52:52.185Z</time></trkpt><trkpt lat="45.7432309" lon="8.9704038"><ele>354.0</ele><time>2026-04-11T06:52:57.107Z</time></trkpt><trkpt lat="45.7431608" lon="8.9704346"><ele>354.0</ele><time>2026-04-11T06:53:03.153Z</time></trkpt><trkpt lat="45.743116" lon="8.9705043"><ele>354.0</ele><time>2026-04-11T06:53:08.131Z</time></trkpt><trkpt lat="45.7430893" lon="8.970605"><ele>354.0</ele><time>2026-04-11T06:53:14.173Z</time></trkpt><trkpt lat="45.7430671" lon="8.9707025"><ele>354.0</ele><time>2026-04-11T06:53:20.134Z</time></trkpt><trkpt lat="45.7430224" lon="8.9707729"><ele>354.0</ele><time>2026-04-11T06:53:26.674Z</time></trkpt><trkpt lat="45.7429669" lon="8.9707147"><ele>354.0</ele><time>2026-04-11T06:53:41.505Z</time></trkpt><trkpt lat="45.7429759" lon="8.9706164"><ele>354.0</ele><time>2026-04-11T06:53:48.63Z</time></trkpt><trkpt lat="45.7429921" lon="8.9705168"><ele>354.0</ele><time>2026-04-11T06:53:54.895Z</time></trkpt><trkpt lat="45.742938" lon="8.9704667"><ele>354.0</ele><time>2026-04-11T06:54:00.953Z</time></trkpt><trkpt lat="45.7428679" lon="8.970481"><ele>354.0</ele><time>2026-04-11T06:54:06.165Z</time></trkpt><trkpt lat="45.7427963" lon="8.9704919"><ele>354.0</ele><time>2026-04-11T06:54:13.178Z</time></trkpt><trkpt lat="45.7427322" lon="8.9705304"><ele>354.0</ele><time>2026-04-11T06:54:19.115Z</time></trkpt><trkpt lat="45.7426993" lon="8.9706076"><ele>354.0</ele><time>2026-04-11T06:54:26.206Z</time></trkpt><trkpt lat="45.7426794" lon="8.9706997"><ele>354.0</ele><time>2026-04-11T06:54:35.139Z</time></trkpt><trkpt lat="45.74268" lon="8.9707917"><ele>355.0</ele><time>2026-04-11T06:54:43.053Z</time></trkpt><trkpt lat="45.7426675" lon="8.9708848"><ele>356.0</ele><time>2026-04-11T06:54:49.373Z</time></trkpt><trkpt lat="45.7426543" lon="8.9709945"><ele>357.0</ele><time>2026-04-11T06:54:54.474Z</time></trkpt><trkpt lat="45.7426541" lon="8.9710914"><ele>358.0</ele><time>2026-04-11T06:54:58.543Z</time></trkpt><trkpt lat="45.7426208" lon="8.9711734"><ele>359.0</ele><time>2026-04-11T06:55:03.607Z</time></trkpt><trkpt lat="45.7425605" lon="8.9712365"><ele>360.0</ele><time>2026-04-11T06:55:08.691Z</time></trkpt><trkpt lat="45.7424945" lon="8.9712715"><ele>361.0</ele><time>2026-04-11T06:55:14.713Z</time></trkpt><trkpt lat="45.7424303" lon="8.9712903"><ele>361.0</ele><time>2026-04-11T06:55:19.773Z</time></trkpt><trkpt lat="45.7423631" lon="8.971285"><ele>361.0</ele><time>2026-04-11T06:55:23.916Z</time></trkpt><trkpt lat="45.7422838" lon="8.9712533"><ele>361.0</ele><time>2026-04-11T06:55:27.982Z</time></trkpt><trkpt lat="45.7422107" lon="8.9712145"><ele>361.0</ele><time>2026-04-11T06:55:31.954Z</time></trkpt><trkpt lat="45.7421404" lon="8.9711927"><ele>361.0</ele><time>2026-04-11T06:55:37.067Z</time></trkpt><trkpt lat="45.7420818" lon="8.9711454"><ele>361.0</ele><time>2026-04-11T06:55:42.059Z</time></trkpt><trkpt lat="45.7420036" lon="8.9711194"><ele>361.0</ele><time>2026-04-11T06:55:47.088Z</time></trkpt><trkpt lat="45.741932" lon="8.9711088"><ele>361.0</ele><time>2026-04-11T06:55:51.014Z</time></trkpt><trkpt lat="45.7418634" lon="8.9710878"><ele>361.0</ele><time>2026-04-11T06:55:55.021Z</time></trkpt><trkpt lat="45.741799" lon="8.9710728"><ele>361.0</ele><time>2026-04-11T06:55:58.973Z</time></trkpt><trkpt lat="45.7417251" lon="8.9710716"><ele>361.0</ele><time>2026-04-11T06:56:03.989Z</time></trkpt><trkpt lat="45.7416574" lon="8.9710619"><ele>361.0</ele><time>2026-04-11T06:56:08.991Z</time></trkpt><trkpt lat="45.7415863" lon="8.9710601"><ele>361.0</ele><time>2026-04-11T06:56:14.024Z</time></trkpt><trkpt lat="45.7415209" lon="8.9710542"><ele>361.0</ele><time>2026-04-11T06:56:18.206Z</time></trkpt><trkpt lat="45.7414529" lon="8.9710544"><ele>361.0</ele><time>2026-04-11T06:56:22.129Z</time></trkpt><trkpt lat="45.7413875" lon="8.9710628"><ele>361.0</ele><time>2026-04-11T06:56:26.016Z</time></trkpt><trkpt lat="45.741317" lon="8.9710733"><ele>361.0</ele><time>2026-04-11T06:56:31.147Z</time></trkpt><trkpt lat="45.7412513" lon="8.9710773"><ele>361.0</ele><time>2026-04-11T06:56:36.132Z</time></trkpt><trkpt lat="45.7411803" lon="8.9710862"><ele>361.0</ele><time>2026-04-11T06:56:41.171Z</time></trkpt><trkpt lat="45.7411094" lon="8.9710796"><ele>361.0</ele><time>2026-04-11T06:56:45.101Z</time></trkpt><trkpt lat="45.7410376" lon="8.9710836"><ele>361.0</ele><time>2026-04-11T06:56:49.114Z</time></trkpt><trkpt lat="45.7409679" lon="8.9711025"><ele>361.14285714285717</ele><time>2026-04-11T06:56:53.153Z</time></trkpt><trkpt lat="45.7408969" lon="8.9711241"><ele>361.2857142857143</ele><time>2026-04-11T06:56:58.192Z</time></trkpt><trkpt lat="45.7408339" lon="8.9711402"><ele>361.42857142857144</ele><time>2026-04-11T06:57:02.25Z</time></trkpt><trkpt lat="45.7407647" lon="8.9711412"><ele>361.57142857142856</ele><time>2026-04-11T06:57:06.227Z</time></trkpt><trkpt lat="45.7406967" lon="8.9711306"><ele>361.71428571428567</ele><time>2026-04-11T06:57:11.129Z</time></trkpt><trkpt lat="45.7406292" lon="8.9711223"><ele>361.85714285714283</ele><time>2026-04-11T06:57:16.153Z</time></trkpt><trkpt lat="45.7405597" lon="8.9711236"><ele>362.0</ele><time>2026-04-11T06:57:21.192Z</time></trkpt><trkpt lat="45.7404934" lon="8.9711301"><ele>362.0</ele><time>2026-04-11T06:57:25.137Z</time></trkpt><trkpt lat="45.7404336" lon="8.9711673"><ele>362.0</ele><time>2026-04-11T06:57:31.155Z</time></trkpt><trkpt lat="45.7403641" lon="8.9711801"><ele>362.0</ele><time>2026-04-11T06:57:36.194Z</time></trkpt><trkpt lat="45.7402986" lon="8.9712196"><ele>362.0</ele><time>2026-04-11T06:57:41.107Z</time></trkpt><trkpt lat="45.7402302" lon="8.9712636"><ele>362.0</ele><time>2026-04-11T06:57:46.133Z</time></trkpt><trkpt lat="45.7401626" lon="8.9712812"><ele>362.0</ele><time>2026-04-11T06:57:50.165Z</time></trkpt><trkpt lat="45.7401004" lon="8.9713046"><ele>362.0</ele><time>2026-04-11T06:57:54.174Z</time></trkpt><trkpt lat="45.74004" lon="8.9713437"><ele>362.1428571428571</ele><time>2026-04-11T06:57:59.212Z</time></trkpt><trkpt lat="45.7399706" lon="8.9713794"><ele>362.2857142857143</ele><time>2026-04-11T06:58:05.167Z</time></trkpt><trkpt lat="45.7399034" lon="8.9714144"><ele>362.42857142857144</ele><time>2026-04-11T06:58:10.165Z</time></trkpt><trkpt lat="45.7398388" lon="8.9714427"><ele>362.57142857142856</ele><time>2026-04-11T06:58:15.285Z</time></trkpt><trkpt lat="45.7397684" lon="8.9714737"><ele>362.7142857142857</ele><time>2026-04-11T06:58:20.372Z</time></trkpt><trkpt lat="45.7397076" lon="8.9715139"><ele>362.85714285714283</ele><time>2026-04-11T06:58:24.497Z</time></trkpt><trkpt lat="45.7396399" lon="8.9715524"><ele>363.0</ele><time>2026-04-11T06:58:29.61Z</time></trkpt><trkpt lat="45.7395713" lon="8.9715792"><ele>363.0</ele><time>2026-04-11T06:58:35.765Z</time></trkpt><trkpt lat="45.7395028" lon="8.9716043"><ele>363.0</ele><time>2026-04-11T06:58:40.862Z</time></trkpt><trkpt lat="45.739443" lon="8.9716583"><ele>363.0</ele><time>2026-04-11T06:58:46.964Z</time></trkpt><trkpt lat="45.7393999" lon="8.9717408"><ele>363.0</ele><time>2026-04-11T06:58:53.133Z</time></trkpt><trkpt lat="45.7393105" lon="8.971793"><ele>363.0</ele><time>2026-04-11T06:58:57.14Z</time></trkpt><trkpt lat="45.7392639" lon="8.9718762"><ele>363.0</ele><time>2026-04-11T06:59:01.141Z</time></trkpt><trkpt lat="45.7392281" lon="8.971963"><ele>362.4285714285714</ele><time>2026-04-11T06:59:05.256Z</time></trkpt><trkpt lat="45.7391786" lon="8.972027"><ele>361.85714285714283</ele><time>2026-04-11T06:59:11.817Z</time></trkpt><trkpt lat="45.7392031" lon="8.9721361"><ele>361.2857142857143</ele><time>2026-04-11T06:59:15.139Z</time></trkpt><trkpt lat="45.7392024" lon="8.9722285"><ele>360.71428571428567</ele><time>2026-04-11T06:59:19.033Z</time></trkpt><trkpt lat="45.7391727" lon="8.9723214"><ele>360.14285714285717</ele><time>2026-04-11T06:59:26.154Z</time></trkpt><trkpt lat="45.7391103" lon="8.972362"><ele>359.57142857142856</ele><time>2026-04-11T06:59:32.253Z</time></trkpt><trkpt lat="45.7390386" lon="8.9723535"><ele>359.0</ele><time>2026-04-11T06:59:37.491Z</time></trkpt><trkpt lat="45.7389751" lon="8.9723494"><ele>359.0</ele><time>2026-04-11T06:59:42.481Z</time></trkpt><trkpt lat="45.7389081" lon="8.9723596"><ele>359.0</ele><time>2026-04-11T06:59:47.633Z</time></trkpt><trkpt lat="45.7388437" lon="8.9723379"><ele>359.0</ele><time>2026-04-11T06:59:51.775Z</time></trkpt><trkpt lat="45.7387744" lon="8.9723161"><ele>359.0</ele><time>2026-04-11T06:59:56.808Z</time></trkpt><trkpt lat="45.7387056" lon="8.972301"><ele>359.0</ele><time>2026-04-11T07:00:02.066Z</time></trkpt><trkpt lat="45.7386411" lon="8.972268"><ele>359.0</ele><time>2026-04-11T07:00:06.014Z</time></trkpt><trkpt lat="45.7385723" lon="8.9722808"><ele>359.0</ele><time>2026-04-11T07:00:10.133Z</time></trkpt><trkpt lat="45.7384969" lon="8.9722857"><ele>359.0</ele><time>2026-04-11T07:00:14.25Z</time></trkpt><trkpt lat="45.7384143" lon="8.9722826"><ele>359.0</ele><time>2026-04-11T07:00:18.13Z</time></trkpt><trkpt lat="45.7383496" lon="8.9722832"><ele>359.0</ele><time>2026-04-11T07:00:21.217Z</time></trkpt><trkpt lat="45.7382806" lon="8.9722772"><ele>359.0</ele><time>2026-04-11T07:00:24.054Z</time></trkpt><trkpt lat="45.7381993" lon="8.9722552"><ele>359.0</ele><time>2026-04-11T07:00:28.061Z</time></trkpt><trkpt lat="45.7381253" lon="8.9722208"><ele>359.0</ele><time>2026-04-11T07:00:32.151Z</time></trkpt><trkpt lat="45.7380523" lon="8.9722055"><ele>359.0</ele><time>2026-04-11T07:00:36.244Z</time></trkpt><trkpt lat="45.737982" lon="8.9721834"><ele>359.0</ele><time>2026-04-11T07:00:42.772Z</time></trkpt><trkpt lat="45.7379131" lon="8.9721671"><ele>359.0</ele><time>2026-04-11T07:00:47.953Z</time></trkpt><trkpt lat="45.7378407" lon="8.9721393"><ele>359.0</ele><time>2026-04-11T07:00:53Z</time></trkpt><trkpt lat="45.7377753" lon="8.9721038"><ele>359.0</ele><time>2026-04-11T07:00:57.187Z</time></trkpt><trkpt lat="45.7377066" lon="8.9720821"><ele>359.0</ele><time>2026-04-11T07:01:01.213Z</time></trkpt><trkpt lat="45.7376328" lon="8.9720517"><ele>359.0</ele><time>2026-04-11T07:01:05.129Z</time></trkpt><trkpt lat="45.7375698" lon="8.972016"><ele>359.42857142857144</ele><time>2026-04-11T07:01:09.202Z</time></trkpt><trkpt lat="45.737503" lon="8.9719668"><ele>359.8571428571429</ele><time>2026-04-11T07:01:13.128Z</time></trkpt><trkpt lat="45.7374476" lon="8.9719222"><ele>360.2857142857143</ele><time>2026-04-11T07:01:17.202Z</time></trkpt><trkpt lat="45.7373855" lon="8.9718567"><ele>360.7142857142857</ele><time>2026-04-11T07:01:21.333Z</time></trkpt><trkpt lat="45.7373392" lon="8.9717868"><ele>361.1428571428571</ele><time>2026-04-11T07:01:26.512Z</time></trkpt><trkpt lat="45.7372873" lon="8.9717169"><ele>361.57142857142856</ele><time>2026-04-11T07:01:32.737Z</time></trkpt><trkpt lat="45.7372689" lon="8.9716184"><ele>362.0</ele><time>2026-04-11T07:01:38.96Z</time></trkpt><trkpt lat="45.7372346" lon="8.9715305"><ele>361.2857142857143</ele><time>2026-04-11T07:01:45.188Z</time></trkpt><trkpt lat="45.7371823" lon="8.9714523"><ele>360.57142857142856</ele><time>2026-04-11T07:01:50.206Z</time></trkpt><trkpt lat="45.7371255" lon="8.9713764"><ele>359.8571428571429</ele><time>2026-04-11T07:01:54.13Z</time></trkpt><trkpt lat="45.7370775" lon="8.9713114"><ele>359.1428571428571</ele><time>2026-04-11T07:01:58.13Z</time></trkpt><trkpt lat="45.7370346" lon="8.9712214"><ele>358.42857142857144</ele><time>2026-04-11T07:02:03.149Z</time></trkpt><trkpt lat="45.7369993" lon="8.9711366"><ele>357.7142857142857</ele><time>2026-04-11T07:02:07.156Z</time></trkpt><trkpt lat="45.7369359" lon="8.9710762"><ele>357.0</ele><time>2026-04-11T07:02:11.166Z</time></trkpt><trkpt lat="45.7368604" lon="8.971039"><ele>357.0</ele><time>2026-04-11T07:02:15.174Z</time></trkpt><trkpt lat="45.736797" lon="8.9709907"><ele>357.0</ele><time>2026-04-11T07:02:18.151Z</time></trkpt><trkpt lat="45.7367261" lon="8.9709371"><ele>357.0</ele><time>2026-04-11T07:02:21.131Z</time></trkpt><trkpt lat="45.7366489" lon="8.9709045"><ele>357.0</ele><time>2026-04-11T07:02:24.13Z</time></trkpt><trkpt lat="45.7365651" lon="8.9708796"><ele>357.0</ele><time>2026-04-11T07:02:27.198Z</time></trkpt><trkpt lat="45.7364957" lon="8.9708649"><ele>357.0</ele><time>2026-04-11T07:02:30.176Z</time></trkpt><trkpt lat="45.7364131" lon="8.9708523"><ele>355.7142857142857</ele><time>2026-04-11T07:02:34.184Z</time></trkpt><trkpt lat="45.7363458" lon="8.9708542"><ele>354.42857142857144</ele><time>2026-04-11T07:02:37.161Z</time></trkpt><trkpt lat="45.7362666" lon="8.9708475"><ele>353.1428571428571</ele><time>2026-04-11T07:02:41.17Z</time></trkpt><trkpt lat="45.7362032" lon="8.9708407"><ele>351.8571428571429</ele><time>2026-04-11T07:02:45.178Z</time></trkpt><trkpt lat="45.7361247" lon="8.9708411"><ele>350.57142857142856</ele><time>2026-04-11T07:02:50.217Z</time></trkpt><trkpt lat="45.7360459" lon="8.9708231"><ele>349.2857142857143</ele><time>2026-04-11T07:02:55.028Z</time></trkpt><trkpt lat="45.7359787" lon="8.9708117"><ele>348.0</ele><time>2026-04-11T07:02:59.071Z</time></trkpt><trkpt lat="45.735918" lon="8.9707864"><ele>348.0</ele><time>2026-04-11T07:03:03.153Z</time></trkpt><trkpt lat="45.7358569" lon="8.9707595"><ele>348.0</ele><time>2026-04-11T07:03:07.189Z</time></trkpt><trkpt lat="45.735786" lon="8.9707456"><ele>348.0</ele><time>2026-04-11T07:03:12.205Z</time></trkpt><trkpt lat="45.7357116" lon="8.9707511"><ele>348.0</ele><time>2026-04-11T07:03:17.13Z</time></trkpt><trkpt lat="45.7356494" lon="8.9707771"><ele>348.0</ele><time>2026-04-11T07:03:20.131Z</time></trkpt><trkpt lat="45.7355947" lon="8.970836"><ele>348.0</ele><time>2026-04-11T07:03:23.13Z</time></trkpt><trkpt lat="45.7355463" lon="8.9709088"><ele>348.0</ele><time>2026-04-11T07:03:27.208Z</time></trkpt><trkpt lat="45.7355002" lon="8.9709814"><ele>349.1428571428571</ele><time>2026-04-11T07:03:32.132Z</time></trkpt><trkpt lat="45.7354846" lon="8.9710866"><ele>350.2857142857143</ele><time>2026-04-11T07:03:37.171Z</time></trkpt><trkpt lat="45.7354847" lon="8.9711791"><ele>351.42857142857144</ele><time>2026-04-11T07:03:41.121Z</time></trkpt><trkpt lat="45.7354615" lon="8.9712793"><ele>352.57142857142856</ele><time>2026-04-11T07:03:46.129Z</time></trkpt><trkpt lat="45.735422" lon="8.9711961"><ele>353.7142857142857</ele><time>2026-04-11T07:03:52.174Z</time></trkpt><trkpt lat="45.7354545" lon="8.9710934"><ele>354.85714285714283</ele><time>2026-04-11T07:03:58.301Z</time></trkpt><trkpt lat="45.7354953" lon="8.9710165"><ele>356.0</ele><time>2026-04-11T07:04:03.124Z</time></trkpt><trkpt lat="45.7355027" lon="8.9709172"><ele>354.85714285714283</ele><time>2026-04-11T07:04:08.162Z</time></trkpt><trkpt lat="45.7355047" lon="8.9708123"><ele>353.7142857142857</ele><time>2026-04-11T07:04:14.19Z</time></trkpt><trkpt lat="45.735525" lon="8.9707144"><ele>352.57142857142856</ele><time>2026-04-11T07:04:20.13Z</time></trkpt><trkpt lat="45.7355469" lon="8.9706211"><ele>351.42857142857144</ele><time>2026-04-11T07:04:24.13Z</time></trkpt><trkpt lat="45.7355492" lon="8.9705108"><ele>350.2857142857143</ele><time>2026-04-11T07:04:28.136Z</time></trkpt><trkpt lat="45.735546" lon="8.9704112"><ele>349.1428571428571</ele><time>2026-04-11T07:04:32.144Z</time></trkpt><trkpt lat="45.7355635" lon="8.9703164"><ele>348.0</ele><time>2026-04-11T07:04:36.152Z</time></trkpt><trkpt lat="45.7355656" lon="8.9702253"><ele>348.0</ele><time>2026-04-11T07:04:40.16Z</time></trkpt><trkpt lat="45.7355456" lon="8.97013"><ele>348.0</ele><time>2026-04-11T07:04:44.169Z</time></trkpt><trkpt lat="45.7355263" lon="8.9700228"><ele>348.0</ele><time>2026-04-11T07:04:49.209Z</time></trkpt><trkpt lat="45.7355151" lon="8.9699104"><ele>348.0</ele><time>2026-04-11T07:04:54.132Z</time></trkpt><trkpt lat="45.7354893" lon="8.9697975"><ele>348.0</ele><time>2026-04-11T07:04:59.172Z</time></trkpt><trkpt lat="45.73548" lon="8.9696836"><ele>348.0</ele><time>2026-04-11T07:05:04.129Z</time></trkpt><trkpt lat="45.7354715" lon="8.9695798"><ele>346.42857142857144</ele><time>2026-04-11T07:05:08.129Z</time></trkpt><trkpt lat="45.7354656" lon="8.969488"><ele>344.8571428571429</ele><time>2026-04-11T07:05:12.13Z</time></trkpt><trkpt lat="45.7354484" lon="8.9693788"><ele>343.28571428571433</ele><time>2026-04-11T07:05:17.152Z</time></trkpt><trkpt lat="45.7354353" lon="8.9692676"><ele>341.7142857142857</ele><time>2026-04-11T07:05:22.192Z</time></trkpt><trkpt lat="45.7354253" lon="8.9691711"><ele>340.14285714285717</ele><time>2026-04-11T07:05:26.201Z</time></trkpt><trkpt lat="45.7354184" lon="8.9690792"><ele>338.5714285714286</ele><time>2026-04-11T07:05:31.129Z</time></trkpt><trkpt lat="45.7354351" lon="8.9689784"><ele>337.0</ele><time>2026-04-11T07:05:36.163Z</time></trkpt><trkpt lat="45.7354559" lon="8.9688922"><ele>336.7142857142857</ele><time>2026-04-11T07:05:40.172Z</time></trkpt><trkpt lat="45.7354799" lon="8.9688061"><ele>336.42857142857144</ele><time>2026-04-11T07:05:44.181Z</time></trkpt><trkpt lat="45.7354994" lon="8.9687177"><ele>336.1428571428571</ele><time>2026-04-11T07:05:48.188Z</time></trkpt><trkpt lat="45.735514" lon="8.9686227"><ele>335.8571428571429</ele><time>2026-04-11T07:05:52.398Z</time></trkpt><trkpt lat="45.7355272" lon="8.9685342"><ele>335.57142857142856</ele><time>2026-04-11T07:05:56.394Z</time></trkpt><trkpt lat="45.7355501" lon="8.9684366"><ele>335.2857142857143</ele><time>2026-04-11T07:06:01.38Z</time></trkpt><trkpt lat="45.7355735" lon="8.96835"><ele>335.0</ele><time>2026-04-11T07:06:06.378Z</time></trkpt><trkpt lat="45.7355953" lon="8.9682592"><ele>334.85714285714283</ele><time>2026-04-11T07:06:11.415Z</time></trkpt><trkpt lat="45.7356212" lon="8.9681679"><ele>334.7142857142857</ele><time>2026-04-11T07:06:16.453Z</time></trkpt><trkpt lat="45.7356522" lon="8.9680788"><ele>334.57142857142856</ele><time>2026-04-11T07:06:21.514Z</time></trkpt><trkpt lat="45.7356741" lon="8.9679846"><ele>334.42857142857144</ele><time>2026-04-11T07:06:26.553Z</time></trkpt><trkpt lat="45.7356879" lon="8.96788"><ele>334.2857142857143</ele><time>2026-04-11T07:06:31.634Z</time></trkpt><trkpt lat="45.7356895" lon="8.9677704"><ele>334.1428571428571</ele><time>2026-04-11T07:06:35.673Z</time></trkpt><trkpt lat="45.7356836" lon="8.967679"><ele>334.0</ele><time>2026-04-11T07:06:39.777Z</time></trkpt><trkpt lat="45.7356847" lon="8.9675698"><ele>334.7142857142857</ele><time>2026-04-11T07:06:43.797Z</time></trkpt><trkpt lat="45.7356927" lon="8.9674801"><ele>335.42857142857144</ele><time>2026-04-11T07:06:47.896Z</time></trkpt><trkpt lat="45.735707" lon="8.9673864"><ele>336.1428571428571</ele><time>2026-04-11T07:06:52.941Z</time></trkpt><trkpt lat="45.7357197" lon="8.9672866"><ele>336.8571428571429</ele><time>2026-04-11T07:06:58.145Z</time></trkpt><trkpt lat="45.7357351" lon="8.9671988"><ele>337.5714285714286</ele><time>2026-04-11T07:07:03.13Z</time></trkpt><trkpt lat="45.7357424" lon="8.9671"><ele>338.2857142857143</ele><time>2026-04-11T07:07:09.332Z</time></trkpt><trkpt lat="45.7357439" lon="8.9670048"><ele>339.0</ele><time>2026-04-11T07:07:14.453Z</time></trkpt><trkpt lat="45.7357338" lon="8.9669116"><ele>339.0</ele><time>2026-04-11T07:07:18.458Z</time></trkpt><trkpt lat="45.7356957" lon="8.9668154"><ele>339.0</ele><time>2026-04-11T07:07:23.069Z</time></trkpt><trkpt lat="45.7356904" lon="8.9667192"><ele>339.0</ele><time>2026-04-11T07:07:27.154Z</time></trkpt><trkpt lat="45.7356894" lon="8.9666252"><ele>339.0</ele><time>2026-04-11T07:07:31.361Z</time></trkpt><trkpt lat="45.7356658" lon="8.9665304"><ele>339.0</ele><time>2026-04-11T07:07:36.517Z</time></trkpt><trkpt lat="45.7356246" lon="8.9664574"><ele>339.0</ele><time>2026-04-11T07:07:42.733Z</time></trkpt><trkpt lat="45.7355558" lon="8.9664207"><ele>339.0</ele><time>2026-04-11T07:07:48.986Z</time></trkpt><trkpt lat="45.7354836" lon="8.966396"><ele>340.0</ele><time>2026-04-11T07:07:54.198Z</time></trkpt><trkpt lat="45.7354171" lon="8.9663624"><ele>341.0</ele><time>2026-04-11T07:07:59.211Z</time></trkpt><trkpt lat="45.7353807" lon="8.9662692"><ele>342.0</ele><time>2026-04-11T07:08:05.204Z</time></trkpt><trkpt lat="45.7353941" lon="8.9661786"><ele>343.0</ele><time>2026-04-11T07:08:15.129Z</time></trkpt><trkpt lat="45.7354428" lon="8.9661036"><ele>344.0</ele><time>2026-04-11T07:08:25.312Z</time></trkpt><trkpt lat="45.7355088" lon="8.9660749"><ele>345.0</ele><time>2026-04-11T07:08:31.162Z</time></trkpt><trkpt lat="45.7355776" lon="8.966038"><ele>346.0</ele><time>2026-04-11T07:08:37.131Z</time></trkpt><trkpt lat="45.7356366" lon="8.9660061"><ele>346.0</ele><time>2026-04-11T07:08:41.129Z</time></trkpt><trkpt lat="45.735697" lon="8.9659495"><ele>346.0</ele><time>2026-04-11T07:08:47.081Z</time></trkpt><trkpt lat="45.7357551" lon="8.9659075"><ele>346.0</ele><time>2026-04-11T07:08:53.151Z</time></trkpt><trkpt lat="45.7358168" lon="8.9658736"><ele>346.0</ele><time>2026-04-11T07:08:58.19Z</time></trkpt><trkpt lat="45.735874" lon="8.9658231"><ele>346.0</ele><time>2026-04-11T07:09:04.138Z</time></trkpt><trkpt lat="45.7359359" lon="8.9658062"><ele>346.0</ele><time>2026-04-11T07:09:09.133Z</time></trkpt><trkpt lat="45.7360085" lon="8.9657999"><ele>346.0</ele><time>2026-04-11T07:09:13.192Z</time></trkpt><trkpt lat="45.7360725" lon="8.965783"><ele>347.7142857142857</ele><time>2026-04-11T07:09:16.823Z</time></trkpt><trkpt lat="45.736134" lon="8.9657444"><ele>349.42857142857144</ele><time>2026-04-11T07:09:21.209Z</time></trkpt><trkpt lat="45.7361895" lon="8.9656798"><ele>351.14285714285717</ele><time>2026-04-11T07:09:26.151Z</time></trkpt><trkpt lat="45.7362555" lon="8.965632"><ele>352.8571428571429</ele><time>2026-04-11T07:09:31.333Z</time></trkpt><trkpt lat="45.7363107" lon="8.9655853"><ele>354.57142857142856</ele><time>2026-04-11T07:09:37.128Z</time></trkpt><trkpt lat="45.73635" lon="8.9655138"><ele>356.28571428571433</ele><time>2026-04-11T07:09:44.179Z</time></trkpt><trkpt lat="45.7363833" lon="8.9654182"><ele>358.0</ele><time>2026-04-11T07:09:49.36Z</time></trkpt><trkpt lat="45.7364042" lon="8.9653269"><ele>358.00000000000006</ele><time>2026-04-11T07:09:54.377Z</time></trkpt><trkpt lat="45.7364191" lon="8.9652203"><ele>358.0</ele><time>2026-04-11T07:10:00.46Z</time></trkpt><trkpt lat="45.7364345" lon="8.9651132"><ele>358.0</ele><time>2026-04-11T07:10:06.005Z</time></trkpt><trkpt lat="45.7364683" lon="8.9650273"><ele>358.0</ele><time>2026-04-11T07:10:14.174Z</time></trkpt><trkpt lat="45.7365224" lon="8.9649693"><ele>358.0</ele><time>2026-04-11T07:10:21.154Z</time></trkpt><trkpt lat="45.7365804" lon="8.964909"><ele>358.00000000000006</ele><time>2026-04-11T07:10:26.233Z</time></trkpt><trkpt lat="45.7366414" lon="8.9648618"><ele>358.0</ele><time>2026-04-11T07:10:30.227Z</time></trkpt><trkpt lat="45.7366978" lon="8.9648066"><ele>358.5714285714286</ele><time>2026-04-11T07:10:34.161Z</time></trkpt><trkpt lat="45.7367491" lon="8.9647541"><ele>359.14285714285717</ele><time>2026-04-11T07:10:38.168Z</time></trkpt><trkpt lat="45.7368108" lon="8.9647154"><ele>359.7142857142857</ele><time>2026-04-11T07:10:42.177Z</time></trkpt><trkpt lat="45.7368823" lon="8.9646949"><ele>360.28571428571433</ele><time>2026-04-11T07:10:47.026Z</time></trkpt><trkpt lat="45.7369449" lon="8.9646845"><ele>360.85714285714283</ele><time>2026-04-11T07:10:51.097Z</time></trkpt><trkpt lat="45.7370088" lon="8.964665"><ele>361.42857142857144</ele><time>2026-04-11T07:10:55.197Z</time></trkpt><trkpt lat="45.7370814" lon="8.9646507"><ele>362.0</ele><time>2026-04-11T07:11:00.157Z</time></trkpt><trkpt lat="45.7371502" lon="8.9646427"><ele>362.0</ele><time>2026-04-11T07:11:04.256Z</time></trkpt><trkpt lat="45.7372175" lon="8.9646361"><ele>362.0</ele><time>2026-04-11T07:11:08.393Z</time></trkpt><trkpt lat="45.7372886" lon="8.9646194"><ele>362.0</ele><time>2026-04-11T07:11:13.498Z</time></trkpt><trkpt lat="45.7373598" lon="8.9646058"><ele>362.0</ele><time>2026-04-11T07:11:17.547Z</time></trkpt><trkpt lat="45.7374345" lon="8.9645987"><ele>362.0</ele><time>2026-04-11T07:11:22.029Z</time></trkpt><trkpt lat="45.7375151" lon="8.9645948"><ele>362.0</ele><time>2026-04-11T07:11:27.158Z</time></trkpt><trkpt lat="45.7375845" lon="8.964577"><ele>362.0</ele><time>2026-04-11T07:11:31.233Z</time></trkpt><trkpt lat="45.7376564" lon="8.9645721"><ele>362.0</ele><time>2026-04-11T07:11:35.37Z</time></trkpt><trkpt lat="45.7377274" lon="8.9645532"><ele>362.0</ele><time>2026-04-11T07:11:39.403Z</time></trkpt><trkpt lat="45.7377947" lon="8.9645229"><ele>362.0</ele><time>2026-04-11T07:11:42.869Z</time></trkpt><trkpt lat="45.7378657" lon="8.964515"><ele>362.0</ele><time>2026-04-11T07:11:47.227Z</time></trkpt><trkpt lat="45.7379314" lon="8.9645356"><ele>362.0</ele><time>2026-04-11T07:11:52.151Z</time></trkpt><trkpt lat="45.7380002" lon="8.9645724"><ele>362.0</ele><time>2026-04-11T07:11:57.197Z</time></trkpt><trkpt lat="45.7380526" lon="8.9646315"><ele>362.0</ele><time>2026-04-11T07:12:04.176Z</time></trkpt><trkpt lat="45.7381127" lon="8.9645982"><ele>362.0</ele><time>2026-04-11T07:12:10.194Z</time></trkpt><trkpt lat="45.7381773" lon="8.9645994"><ele>362.0</ele><time>2026-04-11T07:12:15.429Z</time></trkpt><trkpt lat="45.7382274" lon="8.9645435"><ele>362.0</ele><time>2026-04-11T07:12:23.186Z</time></trkpt><trkpt lat="45.7381663" lon="8.9644904"><ele>362.0</ele><time>2026-04-11T07:12:36.356Z</time></trkpt><trkpt lat="45.7381699" lon="8.9643889"><ele>362.0</ele><time>2026-04-11T07:12:49.183Z</time></trkpt><trkpt lat="45.7382138" lon="8.9644763"><ele>362.0</ele><time>2026-04-11T07:18:40.944Z</time></trkpt><trkpt lat="45.7381535" lon="8.9645449"><ele>362.0</ele><time>2026-04-11T07:18:44.795Z</time></trkpt><trkpt lat="45.7380922" lon="8.9645659"><ele>362.0</ele><time>2026-04-11T07:18:52.679Z</time></trkpt><trkpt lat="45.7380377" lon="8.9644915"><ele>362.0</ele><time>2026-04-11T07:18:58.11Z</time></trkpt><trkpt lat="45.738" lon="8.9644027"><ele>362.0</ele><time>2026-04-11T07:19:05.155Z</time></trkpt><trkpt lat="45.7379344" lon="8.9643929"><ele>362.0</ele><time>2026-04-11T07:19:11.232Z</time></trkpt><trkpt lat="45.7378542" lon="8.9643913"><ele>362.0</ele><time>2026-04-11T07:19:16.227Z</time></trkpt><trkpt lat="45.737785" lon="8.9643957"><ele>362.0</ele><time>2026-04-11T07:19:20.078Z</time></trkpt><trkpt lat="45.7377095" lon="8.9644108"><ele>362.0</ele><time>2026-04-11T07:19:24.011Z</time></trkpt><trkpt lat="45.7376315" lon="8.9644363"><ele>362.0</ele><time>2026-04-11T07:19:28.021Z</time></trkpt><trkpt lat="45.7375613" lon="8.9644551"><ele>362.0</ele><time>2026-04-11T07:19:31.995Z</time></trkpt><trkpt lat="45.7374898" lon="8.9644728"><ele>362.0</ele><time>2026-04-11T07:19:36.929Z</time></trkpt><trkpt lat="45.7374183" lon="8.9644733"><ele>362.0</ele><time>2026-04-11T07:19:42.938Z</time></trkpt><trkpt lat="45.7373458" lon="8.9644764"><ele>362.0</ele><time>2026-04-11T07:19:48.932Z</time></trkpt><trkpt lat="45.7372699" lon="8.9644823"><ele>362.0</ele><time>2026-04-11T07:19:53.889Z</time></trkpt><trkpt lat="45.7371971" lon="8.9644953"><ele>362.0</ele><time>2026-04-11T07:19:58.836Z</time></trkpt><trkpt lat="45.737124" lon="8.9645197"><ele>362.0</ele><time>2026-04-11T07:20:03.852Z</time></trkpt><trkpt lat="45.7370568" lon="8.9645325"><ele>362.0</ele><time>2026-04-11T07:20:07.917Z</time></trkpt><trkpt lat="45.7369924" lon="8.9645545"><ele>362.0</ele><time>2026-04-11T07:20:11.864Z</time></trkpt><trkpt lat="45.7369211" lon="8.9645641"><ele>362.0</ele><time>2026-04-11T07:20:15.853Z</time></trkpt><trkpt lat="45.7368424" lon="8.9645735"><ele>362.0</ele><time>2026-04-11T07:20:19.771Z</time></trkpt><trkpt lat="45.7367687" lon="8.964598"><ele>362.0</ele><time>2026-04-11T07:20:23.765Z</time></trkpt><trkpt lat="45.7367032" lon="8.9646117"><ele>362.0</ele><time>2026-04-11T07:20:27.753Z</time></trkpt><trkpt lat="45.7366249" lon="8.9646239"><ele>362.1428571428571</ele><time>2026-04-11T07:20:31.762Z</time></trkpt><trkpt lat="45.7365569" lon="8.9646747"><ele>362.2857142857143</ele><time>2026-04-11T07:20:35.757Z</time></trkpt><trkpt lat="45.7364872" lon="8.9647406"><ele>362.42857142857144</ele><time>2026-04-11T07:20:39.824Z</time></trkpt><trkpt lat="45.7364335" lon="8.9648193"><ele>362.57142857142856</ele><time>2026-04-11T07:20:44.811Z</time></trkpt><trkpt lat="45.7363959" lon="8.9649043"><ele>362.7142857142857</ele><time>2026-04-11T07:20:48.873Z</time></trkpt><trkpt lat="45.7363649" lon="8.9649863"><ele>362.85714285714283</ele><time>2026-04-11T07:20:52.874Z</time></trkpt><trkpt lat="45.7363295" lon="8.9650729"><ele>363.0</ele><time>2026-04-11T07:20:57.953Z</time></trkpt><trkpt lat="45.7362882" lon="8.9651497"><ele>362.2857142857143</ele><time>2026-04-11T07:21:04.012Z</time></trkpt><trkpt lat="45.7362603" lon="8.9652443"><ele>361.57142857142856</ele><time>2026-04-11T07:21:10.954Z</time></trkpt><trkpt lat="45.7362383" lon="8.9653443"><ele>360.8571428571429</ele><time>2026-04-11T07:21:15.896Z</time></trkpt><trkpt lat="45.7362076" lon="8.9654262"><ele>360.1428571428571</ele><time>2026-04-11T07:21:20.897Z</time></trkpt><trkpt lat="45.7361749" lon="8.9655168"><ele>359.42857142857144</ele><time>2026-04-11T07:21:26.93Z</time></trkpt><trkpt lat="45.7361389" lon="8.9655964"><ele>358.7142857142857</ele><time>2026-04-11T07:21:31.986Z</time></trkpt><trkpt lat="45.7360736" lon="8.9656487"><ele>358.0</ele><time>2026-04-11T07:21:38.02Z</time></trkpt><trkpt lat="45.7360114" lon="8.9656779"><ele>357.8571428571429</ele><time>2026-04-11T07:21:42.174Z</time></trkpt><trkpt lat="45.7359414" lon="8.9657205"><ele>357.7142857142857</ele><time>2026-04-11T07:21:47.13Z</time></trkpt><trkpt lat="45.7358655" lon="8.9657437"><ele>357.57142857142856</ele><time>2026-04-11T07:21:52.135Z</time></trkpt><trkpt lat="45.7358031" lon="8.9657619"><ele>357.42857142857144</ele><time>2026-04-11T07:21:56.143Z</time></trkpt><trkpt lat="45.7357318" lon="8.9657991"><ele>357.2857142857143</ele><time>2026-04-11T07:22:00.151Z</time></trkpt><trkpt lat="45.7356592" lon="8.9658027"><ele>357.14285714285717</ele><time>2026-04-11T07:22:04.106Z</time></trkpt><trkpt lat="45.7356017" lon="8.9657517"><ele>357.0</ele><time>2026-04-11T07:22:08.168Z</time></trkpt><trkpt lat="45.7355494" lon="8.9656947"><ele>357.0</ele><time>2026-04-11T07:22:13.207Z</time></trkpt><trkpt lat="45.7355605" lon="8.9655976"><ele>357.0</ele><time>2026-04-11T07:22:55.129Z</time></trkpt><trkpt lat="45.735581" lon="8.9655122"><ele>357.0</ele><time>2026-04-11T07:23:13.218Z</time></trkpt><trkpt lat="45.735604" lon="8.965428"><ele>357.0</ele><time>2026-04-11T07:24:40.142Z</time></trkpt><trkpt lat="45.7355598" lon="8.9655706"><ele>357.0</ele><time>2026-04-11T07:25:01.634Z</time></trkpt><trkpt lat="45.7355035" lon="8.9656455"><ele>357.0</ele><time>2026-04-11T07:25:05.785Z</time></trkpt><trkpt lat="45.7354596" lon="8.965724"><ele>357.0</ele><time>2026-04-11T07:25:10.475Z</time></trkpt><trkpt lat="45.7354262" lon="8.965812"><ele>357.0</ele><time>2026-04-11T07:25:20.514Z</time></trkpt><trkpt lat="45.7354036" lon="8.9659137"><ele>357.0</ele><time>2026-04-11T07:25:27.371Z</time></trkpt><trkpt lat="45.7353882" lon="8.9660066"><ele>357.0</ele><time>2026-04-11T07:25:32.284Z</time></trkpt><trkpt lat="45.7353523" lon="8.9660839"><ele>357.0</ele><time>2026-04-11T07:25:37.174Z</time></trkpt><trkpt lat="45.7353213" lon="8.96617"><ele>357.0</ele><time>2026-04-11T07:25:42.047Z</time></trkpt><trkpt lat="45.7353192" lon="8.9662616"><ele>357.0</ele><time>2026-04-11T07:25:46.954Z</time></trkpt><trkpt lat="45.7353534" lon="8.9663434"><ele>355.42857142857144</ele><time>2026-04-11T07:25:50.88Z</time></trkpt><trkpt lat="45.7354125" lon="8.9664051"><ele>353.8571428571429</ele><time>2026-04-11T07:25:54.834Z</time></trkpt><trkpt lat="45.7354815" lon="8.9664374"><ele>352.2857142857143</ele><time>2026-04-11T07:25:58.654Z</time></trkpt><trkpt lat="45.7355514" lon="8.9664681"><ele>350.7142857142857</ele><time>2026-04-11T07:26:02.514Z</time></trkpt><trkpt lat="45.7356141" lon="8.9665035"><ele>349.14285714285717</ele><time>2026-04-11T07:26:07.313Z</time></trkpt><trkpt lat="45.7356448" lon="8.9665844"><ele>347.57142857142856</ele><time>2026-04-11T07:26:12.21Z</time></trkpt><trkpt lat="45.7356656" lon="8.9666763"><ele>346.0</ele><time>2026-04-11T07:26:19.137Z</time></trkpt><trkpt lat="45.7356672" lon="8.9667809"><ele>345.0</ele><time>2026-04-11T07:26:25.955Z</time></trkpt><trkpt lat="45.7356946" lon="8.9668797"><ele>344.0</ele><time>2026-04-11T07:26:35.074Z</time></trkpt><trkpt lat="45.7356965" lon="8.9669739"><ele>343.0</ele><time>2026-04-11T07:26:39.894Z</time></trkpt><trkpt lat="45.7356867" lon="8.9670643"><ele>342.0</ele><time>2026-04-11T07:26:43.705Z</time></trkpt><trkpt lat="45.7356716" lon="8.9671744"><ele>341.0</ele><time>2026-04-11T07:26:48.57Z</time></trkpt><trkpt lat="45.7356686" lon="8.9672648"><ele>340.0</ele><time>2026-04-11T07:26:52.433Z</time></trkpt><trkpt lat="45.7356656" lon="8.9673754"><ele>339.0</ele><time>2026-04-11T07:26:56.316Z</time></trkpt><trkpt lat="45.7356546" lon="8.9674871"><ele>338.2857142857143</ele><time>2026-04-11T07:27:00.654Z</time></trkpt><trkpt lat="45.7356507" lon="8.9675883"><ele>337.5714285714286</ele><time>2026-04-11T07:27:04.874Z</time></trkpt><trkpt lat="45.73564" lon="8.9676812"><ele>336.8571428571429</ele><time>2026-04-11T07:27:08.824Z</time></trkpt><trkpt lat="45.7356093" lon="8.9677783"><ele>336.1428571428571</ele><time>2026-04-11T07:27:13.601Z</time></trkpt><trkpt lat="45.7356007" lon="8.9678915"><ele>335.42857142857144</ele><time>2026-04-11T07:27:18.375Z</time></trkpt><trkpt lat="45.7355949" lon="8.9679851"><ele>334.7142857142857</ele><time>2026-04-11T07:27:22.267Z</time></trkpt><trkpt lat="45.7355732" lon="8.9680752"><ele>334.0</ele><time>2026-04-11T07:27:26.149Z</time></trkpt><trkpt lat="45.7355493" lon="8.9681608"><ele>334.0</ele><time>2026-04-11T07:27:30.013Z</time></trkpt><trkpt lat="45.7355208" lon="8.9682574"><ele>334.0</ele><time>2026-04-11T07:27:34.794Z</time></trkpt><trkpt lat="45.7354863" lon="8.9683333"><ele>334.0</ele><time>2026-04-11T07:27:38.652Z</time></trkpt><trkpt lat="45.7354631" lon="8.9684246"><ele>334.0</ele><time>2026-04-11T07:27:42.554Z</time></trkpt><trkpt lat="45.7354554" lon="8.9685256"><ele>334.0</ele><time>2026-04-11T07:27:46.446Z</time></trkpt><trkpt lat="45.7354607" lon="8.9686261"><ele>334.0</ele><time>2026-04-11T07:27:49.872Z</time></trkpt><trkpt lat="45.7354455" lon="8.9687307"><ele>334.0</ele><time>2026-04-11T07:27:53.76Z</time></trkpt><trkpt lat="45.7354267" lon="8.9688355"><ele>334.1428571428571</ele><time>2026-04-11T07:27:58.714Z</time></trkpt><trkpt lat="45.7354185" lon="8.9689483"><ele>334.2857142857143</ele><time>2026-04-11T07:28:03.62Z</time></trkpt><trkpt lat="45.7354181" lon="8.9690558"><ele>334.42857142857144</ele><time>2026-04-11T07:28:07.595Z</time></trkpt><trkpt lat="45.7354285" lon="8.9691515"><ele>334.57142857142856</ele><time>2026-04-11T07:28:11.488Z</time></trkpt><trkpt lat="45.7354333" lon="8.9692527"><ele>334.7142857142857</ele><time>2026-04-11T07:28:16.409Z</time></trkpt><trkpt lat="45.735437" lon="8.9693602"><ele>334.85714285714283</ele><time>2026-04-11T07:28:20.868Z</time></trkpt><trkpt lat="45.7354234" lon="8.9694487"><ele>335.0</ele><time>2026-04-11T07:28:24.793Z</time></trkpt><trkpt lat="45.7354259" lon="8.9695455"><ele>335.2857142857143</ele><time>2026-04-11T07:28:29.674Z</time></trkpt><trkpt lat="45.735439" lon="8.9696429"><ele>335.57142857142856</ele><time>2026-04-11T07:28:33.676Z</time></trkpt><trkpt lat="45.7354532" lon="8.9697461"><ele>335.8571428571429</ele><time>2026-04-11T07:28:38.015Z</time></trkpt><trkpt lat="45.7354688" lon="8.9698384"><ele>336.1428571428571</ele><time>2026-04-11T07:28:41.968Z</time></trkpt><trkpt lat="45.7354787" lon="8.9699293"><ele>336.42857142857144</ele><time>2026-04-11T07:28:45.871Z</time></trkpt><trkpt lat="45.7355001" lon="8.970029"><ele>336.7142857142857</ele><time>2026-04-11T07:28:50.799Z</time></trkpt><trkpt lat="45.7355064" lon="8.9701325"><ele>337.0</ele><time>2026-04-11T07:28:55.734Z</time></trkpt><trkpt lat="45.735491" lon="8.9702222"><ele>338.8333333333333</ele><time>2026-04-11T07:29:00.677Z</time></trkpt><trkpt lat="45.7354938" lon="8.970334"><ele>340.66666666666663</ele><time>2026-04-11T07:29:06.679Z</time></trkpt><trkpt lat="45.735488" lon="8.9704454"><ele>342.5</ele><time>2026-04-11T07:29:11.673Z</time></trkpt><trkpt lat="45.7354733" lon="8.9705553"><ele>344.3333333333333</ele><time>2026-04-11T07:29:16.707Z</time></trkpt><trkpt lat="45.7354622" lon="8.9706595"><ele>346.1666666666667</ele><time>2026-04-11T07:29:21.653Z</time></trkpt><trkpt lat="45.7354484" lon="8.9707689"><ele>348.0</ele><time>2026-04-11T07:29:26.635Z</time></trkpt><trkpt lat="45.7354471" lon="8.9708727"><ele>349.1428571428571</ele><time>2026-04-11T07:29:32.861Z</time></trkpt><trkpt lat="45.7354245" lon="8.9709763"><ele>350.2857142857143</ele><time>2026-04-11T07:29:38.893Z</time></trkpt><trkpt lat="45.73541" lon="8.9710687"><ele>351.42857142857144</ele><time>2026-04-11T07:29:43.972Z</time></trkpt><trkpt lat="45.7354221" lon="8.9711705"><ele>352.57142857142856</ele><time>2026-04-11T07:29:49.114Z</time></trkpt><trkpt lat="45.7354325" lon="8.971261"><ele>353.7142857142857</ele><time>2026-04-11T07:29:54.261Z</time></trkpt><trkpt lat="45.7354545" lon="8.9711706"><ele>354.85714285714283</ele><time>2026-04-11T07:30:00.133Z</time></trkpt><trkpt lat="45.7354572" lon="8.9710659"><ele>356.0</ele><time>2026-04-11T07:30:06.202Z</time></trkpt><trkpt lat="45.735493" lon="8.9709743"><ele>355.99999999999994</ele><time>2026-04-11T07:30:12.158Z</time></trkpt><trkpt lat="45.7355591" lon="8.9709155"><ele>356.0</ele><time>2026-04-11T07:30:18.132Z</time></trkpt><trkpt lat="45.7356284" lon="8.9708828"><ele>356.0</ele><time>2026-04-11T07:30:23.101Z</time></trkpt><trkpt lat="45.7356953" lon="8.9708598"><ele>356.0</ele><time>2026-04-11T07:30:29.155Z</time></trkpt><trkpt lat="45.73576" lon="8.9708653"><ele>356.0</ele><time>2026-04-11T07:30:35.175Z</time></trkpt><trkpt lat="45.7358345" lon="8.9708668"><ele>355.99999999999994</ele><time>2026-04-11T07:30:42.193Z</time></trkpt><trkpt lat="45.7359093" lon="8.9708843"><ele>356.0</ele><time>2026-04-11T07:30:47.133Z</time></trkpt><trkpt lat="45.7359863" lon="8.9708874"><ele>355.99999999999994</ele><time>2026-04-11T07:30:52.149Z</time></trkpt><trkpt lat="45.7360504" lon="8.9708997"><ele>356.0</ele><time>2026-04-11T07:30:56.167Z</time></trkpt><trkpt lat="45.7361157" lon="8.9709211"><ele>356.0</ele><time>2026-04-11T07:31:01.276Z</time></trkpt><trkpt lat="45.7361826" lon="8.9709459"><ele>356.0</ele><time>2026-04-11T07:31:05.242Z</time></trkpt><trkpt lat="45.7362462" lon="8.9709541"><ele>356.0</ele><time>2026-04-11T07:31:09.299Z</time></trkpt><trkpt lat="45.7363199" lon="8.9709681"><ele>355.99999999999994</ele><time>2026-04-11T07:31:14.13Z</time></trkpt><trkpt lat="45.7363968" lon="8.9709906"><ele>356.0</ele><time>2026-04-11T07:31:19.154Z</time></trkpt><trkpt lat="45.7364637" lon="8.9710066"><ele>356.1428571428571</ele><time>2026-04-11T07:31:23.27Z</time></trkpt><trkpt lat="45.7365304" lon="8.9710295"><ele>356.2857142857143</ele><time>2026-04-11T07:31:27.172Z</time></trkpt><trkpt lat="45.7365933" lon="8.9710527"><ele>356.42857142857144</ele><time>2026-04-11T07:31:31.179Z</time></trkpt><trkpt lat="45.7366532" lon="8.9710932"><ele>356.57142857142856</ele><time>2026-04-11T07:31:35.187Z</time></trkpt><trkpt lat="45.7367114" lon="8.9711506"><ele>356.7142857142857</ele><time>2026-04-11T07:31:39.196Z</time></trkpt><trkpt lat="45.7367811" lon="8.9711989"><ele>356.85714285714283</ele><time>2026-04-11T07:31:43.994Z</time></trkpt><trkpt lat="45.7368412" lon="8.9712568"><ele>357.0</ele><time>2026-04-11T07:31:49.888Z</time></trkpt><trkpt lat="45.7368836" lon="8.9713283"><ele>356.42857142857144</ele><time>2026-04-11T07:31:54.913Z</time></trkpt><trkpt lat="45.736937" lon="8.9714024"><ele>355.8571428571429</ele><time>2026-04-11T07:32:00.033Z</time></trkpt><trkpt lat="45.7369947" lon="8.9714797"><ele>355.2857142857143</ele><time>2026-04-11T07:32:05.124Z</time></trkpt><trkpt lat="45.7370436" lon="8.9715463"><ele>354.7142857142857</ele><time>2026-04-11T07:32:09.16Z</time></trkpt><trkpt lat="45.7370951" lon="8.9716234"><ele>354.14285714285717</ele><time>2026-04-11T07:32:14.391Z</time></trkpt><trkpt lat="45.7371455" lon="8.9716936"><ele>353.57142857142856</ele><time>2026-04-11T07:32:19.883Z</time></trkpt><trkpt lat="45.7371808" lon="8.9717772"><ele>353.0</ele><time>2026-04-11T07:32:25.087Z</time></trkpt><trkpt lat="45.7372124" lon="8.9718595"><ele>354.2857142857143</ele><time>2026-04-11T07:32:30.138Z</time></trkpt><trkpt lat="45.737263" lon="8.9719361"><ele>355.5714285714286</ele><time>2026-04-11T07:32:35.149Z</time></trkpt><trkpt lat="45.7373245" lon="8.9719852"><ele>356.8571428571429</ele><time>2026-04-11T07:32:40.204Z</time></trkpt><trkpt lat="45.7373885" lon="8.9720374"><ele>358.1428571428571</ele><time>2026-04-11T07:32:45.251Z</time></trkpt><trkpt lat="45.7374559" lon="8.9720925"><ele>359.42857142857144</ele><time>2026-04-11T07:32:50.254Z</time></trkpt><trkpt lat="45.7375124" lon="8.9721601"><ele>360.7142857142857</ele><time>2026-04-11T07:32:56.321Z</time></trkpt><trkpt lat="45.7375661" lon="8.9722125"><ele>362.0</ele><time>2026-04-11T07:33:01.355Z</time></trkpt><trkpt lat="45.7376232" lon="8.9722718"><ele>362.0</ele><time>2026-04-11T07:33:06.373Z</time></trkpt><trkpt lat="45.7376833" lon="8.9723185"><ele>362.0</ele><time>2026-04-11T07:33:10.947Z</time></trkpt><trkpt lat="45.7377466" lon="8.9723422"><ele>362.0</ele><time>2026-04-11T07:33:15.978Z</time></trkpt><trkpt lat="45.7378259" lon="8.9723789"><ele>362.0</ele><time>2026-04-11T07:33:20.927Z</time></trkpt><trkpt lat="45.737891" lon="8.9724147"><ele>362.0</ele><time>2026-04-11T07:33:25.977Z</time></trkpt><trkpt lat="45.7379567" lon="8.9724496"><ele>362.0</ele><time>2026-04-11T07:33:32.034Z</time></trkpt><trkpt lat="45.7380208" lon="8.9724716"><ele>362.0</ele><time>2026-04-11T07:33:37.053Z</time></trkpt><trkpt lat="45.7380909" lon="8.9725125"><ele>362.2857142857143</ele><time>2026-04-11T07:33:42.137Z</time></trkpt><trkpt lat="45.7381618" lon="8.9725628"><ele>362.57142857142856</ele><time>2026-04-11T07:33:46.128Z</time></trkpt><trkpt lat="45.7382338" lon="8.9725871"><ele>362.8571428571429</ele><time>2026-04-11T07:33:50.236Z</time></trkpt><trkpt lat="45.7383025" lon="8.9726095"><ele>363.1428571428571</ele><time>2026-04-11T07:33:53.193Z</time></trkpt><trkpt lat="45.7383693" lon="8.9726304"><ele>363.42857142857144</ele><time>2026-04-11T07:33:56.17Z</time></trkpt><trkpt lat="45.7384456" lon="8.9726266"><ele>363.7142857142857</ele><time>2026-04-11T07:33:59.246Z</time></trkpt><trkpt lat="45.7385251" lon="8.9726287"><ele>364.0</ele><time>2026-04-11T07:34:03.157Z</time></trkpt><trkpt lat="45.7386047" lon="8.9726151"><ele>363.2857142857143</ele><time>2026-04-11T07:34:07.253Z</time></trkpt><trkpt lat="45.738676" lon="8.9725928"><ele>362.57142857142856</ele><time>2026-04-11T07:34:10.143Z</time></trkpt><trkpt lat="45.7387482" lon="8.972573"><ele>361.8571428571429</ele><time>2026-04-11T07:34:13.129Z</time></trkpt><trkpt lat="45.7388155" lon="8.9725535"><ele>361.1428571428571</ele><time>2026-04-11T07:34:17.13Z</time></trkpt><trkpt lat="45.7388871" lon="8.9725209"><ele>360.42857142857144</ele><time>2026-04-11T07:34:21.138Z</time></trkpt><trkpt lat="45.7389642" lon="8.9724877"><ele>359.7142857142857</ele><time>2026-04-11T07:34:25.146Z</time></trkpt><trkpt lat="45.7390305" lon="8.9724744"><ele>359.0</ele><time>2026-04-11T07:34:30.208Z</time></trkpt><trkpt lat="45.7390974" lon="8.9724771"><ele>359.0</ele><time>2026-04-11T07:34:35.225Z</time></trkpt><trkpt lat="45.7391335" lon="8.9723864"><ele>359.0</ele><time>2026-04-11T07:34:41.263Z</time></trkpt><trkpt lat="45.7391664" lon="8.9722837"><ele>359.0</ele><time>2026-04-11T07:34:45.425Z</time></trkpt><trkpt lat="45.7391934" lon="8.9722014"><ele>359.0</ele><time>2026-04-11T07:34:49.394Z</time></trkpt><trkpt lat="45.7392234" lon="8.9721106"><ele>359.0</ele><time>2026-04-11T07:34:54.58Z</time></trkpt><trkpt lat="45.7392561" lon="8.9720329"><ele>359.0</ele><time>2026-04-11T07:35:03.076Z</time></trkpt><trkpt lat="45.7393031" lon="8.9719706"><ele>359.0</ele><time>2026-04-11T07:35:12.081Z</time></trkpt><trkpt lat="45.739369" lon="8.9719349"><ele>359.14285714285717</ele><time>2026-04-11T07:35:18.715Z</time></trkpt><trkpt lat="45.7394332" lon="8.9719117"><ele>359.28571428571433</ele><time>2026-04-11T07:35:24.824Z</time></trkpt><trkpt lat="45.7395004" lon="8.9718917"><ele>359.42857142857144</ele><time>2026-04-11T07:35:29.914Z</time></trkpt><trkpt lat="45.7395666" lon="8.9718739"><ele>359.57142857142856</ele><time>2026-04-11T07:35:34.053Z</time></trkpt><trkpt lat="45.7396416" lon="8.9718711"><ele>359.7142857142857</ele><time>2026-04-11T07:35:38.034Z</time></trkpt><trkpt lat="45.7397176" lon="8.9718637"><ele>359.85714285714283</ele><time>2026-04-11T07:35:43.139Z</time></trkpt><trkpt lat="45.739783" lon="8.9718538"><ele>360.0</ele><time>2026-04-11T07:35:48.347Z</time></trkpt><trkpt lat="45.7398529" lon="8.9718135"><ele>360.0</ele><time>2026-04-11T07:35:53.573Z</time></trkpt><trkpt lat="45.7399317" lon="8.9717834"><ele>360.0</ele><time>2026-04-11T07:35:57.624Z</time></trkpt><trkpt lat="45.7399896" lon="8.971741"><ele>360.0</ele><time>2026-04-11T07:36:01.173Z</time></trkpt><trkpt lat="45.7400522" lon="8.9716825"><ele>360.0</ele><time>2026-04-11T07:36:05.227Z</time></trkpt><trkpt lat="45.7401193" lon="8.9716234"><ele>360.0</ele><time>2026-04-11T07:36:10.174Z</time></trkpt><trkpt lat="45.7401841" lon="8.9715488"><ele>360.0</ele><time>2026-04-11T07:36:14.453Z</time></trkpt><trkpt lat="45.7402473" lon="8.9714739"><ele>360.2857142857143</ele><time>2026-04-11T07:36:18.548Z</time></trkpt><trkpt lat="45.74031" lon="8.9714112"><ele>360.5714285714286</ele><time>2026-04-11T07:36:22.691Z</time></trkpt><trkpt lat="45.7403715" lon="8.9713727"><ele>360.8571428571429</ele><time>2026-04-11T07:36:25.739Z</time></trkpt><trkpt lat="45.7404324" lon="8.9713343"><ele>361.1428571428571</ele><time>2026-04-11T07:36:29.839Z</time></trkpt><trkpt lat="45.7404916" lon="8.9712901"><ele>361.42857142857144</ele><time>2026-04-11T07:36:33.875Z</time></trkpt><trkpt lat="45.7405645" lon="8.9712593"><ele>361.7142857142857</ele><time>2026-04-11T07:36:38.985Z</time></trkpt><trkpt lat="45.7406374" lon="8.9712479"><ele>362.0</ele><time>2026-04-11T07:36:43.004Z</time></trkpt><trkpt lat="45.7407059" lon="8.971241"><ele>362.0</ele><time>2026-04-11T07:36:45.99Z</time></trkpt><trkpt lat="45.7407699" lon="8.9712151"><ele>362.0</ele><time>2026-04-11T07:36:49.054Z</time></trkpt><trkpt lat="45.7408397" lon="8.9711757"><ele>362.0</ele><time>2026-04-11T07:36:53.014Z</time></trkpt><trkpt lat="45.7408998" lon="8.9711427"><ele>362.0</ele><time>2026-04-11T07:36:56.184Z</time></trkpt><trkpt lat="45.7409654" lon="8.9711135"><ele>362.0</ele><time>2026-04-11T07:37:00.213Z</time></trkpt><trkpt lat="45.7410303" lon="8.9711113"><ele>362.0</ele><time>2026-04-11T07:37:04.13Z</time></trkpt><trkpt lat="45.7411079" lon="8.971134"><ele>362.0</ele><time>2026-04-11T07:37:09.261Z</time></trkpt><trkpt lat="45.7411823" lon="8.9711378"><ele>361.85714285714283</ele><time>2026-04-11T07:37:14.185Z</time></trkpt><trkpt lat="45.7412553" lon="8.971121"><ele>361.71428571428567</ele><time>2026-04-11T07:37:19.184Z</time></trkpt><trkpt lat="45.7413215" lon="8.9711003"><ele>361.57142857142856</ele><time>2026-04-11T07:37:23.132Z</time></trkpt><trkpt lat="45.7413866" lon="8.9710938"><ele>361.42857142857144</ele><time>2026-04-11T07:37:27.131Z</time></trkpt><trkpt lat="45.7414595" lon="8.9710853"><ele>361.2857142857143</ele><time>2026-04-11T07:37:32.087Z</time></trkpt><trkpt lat="45.7415342" lon="8.9711054"><ele>361.14285714285717</ele><time>2026-04-11T07:37:37.197Z</time></trkpt><trkpt lat="45.741606" lon="8.9710976"><ele>361.0</ele><time>2026-04-11T07:37:42.13Z</time></trkpt><trkpt lat="45.7416701" lon="8.9711"><ele>361.0</ele><time>2026-04-11T07:37:46.138Z</time></trkpt><trkpt lat="45.74174" lon="8.9711134"><ele>361.0</ele><time>2026-04-11T07:37:51.177Z</time></trkpt><trkpt lat="45.7418095" lon="8.971117"><ele>361.0</ele><time>2026-04-11T07:37:56.216Z</time></trkpt><trkpt lat="45.741879" lon="8.9711439"><ele>361.0</ele><time>2026-04-11T07:38:01.024Z</time></trkpt><trkpt lat="45.7419579" lon="8.9711625"><ele>361.0</ele><time>2026-04-11T07:38:06.118Z</time></trkpt><trkpt lat="45.7420215" lon="8.9711853"><ele>361.0</ele><time>2026-04-11T07:38:10.28Z</time></trkpt><trkpt lat="45.7420896" lon="8.9712263"><ele>361.0</ele><time>2026-04-11T07:38:15.226Z</time></trkpt><trkpt lat="45.7421465" lon="8.9713011"><ele>361.0</ele><time>2026-04-11T07:38:20.15Z</time></trkpt><trkpt lat="45.7422165" lon="8.9713311"><ele>361.0</ele><time>2026-04-11T07:38:25.13Z</time></trkpt><trkpt lat="45.7422832" lon="8.9713283"><ele>361.0</ele><time>2026-04-11T07:38:29.199Z</time></trkpt><trkpt lat="45.7423484" lon="8.9713251"><ele>361.0</ele><time>2026-04-11T07:38:33.041Z</time></trkpt><trkpt lat="45.7424162" lon="8.9713083"><ele>361.0</ele><time>2026-04-11T07:38:37.069Z</time></trkpt><trkpt lat="45.7424818" lon="8.9712816"><ele>361.0</ele><time>2026-04-11T07:38:41.174Z</time></trkpt><trkpt lat="45.742547" lon="8.9712424"><ele>361.0</ele><time>2026-04-11T07:38:45.235Z</time></trkpt><trkpt lat="45.742614" lon="8.9712176"><ele>361.0</ele><time>2026-04-11T07:38:49.375Z</time></trkpt><trkpt lat="45.7426757" lon="8.9711815"><ele>361.0</ele><time>2026-04-11T07:38:53.373Z</time></trkpt><trkpt lat="45.7427378" lon="8.9711133"><ele>361.0</ele><time>2026-04-11T07:38:57.957Z</time></trkpt><trkpt lat="45.7427371" lon="8.9710216"><ele>361.0</ele><time>2026-04-11T07:39:03.182Z</time></trkpt><trkpt lat="45.7427053" lon="8.9709363"><ele>361.0</ele><time>2026-04-11T07:39:08.324Z</time></trkpt><trkpt lat="45.7427212" lon="8.970839"><ele>361.0</ele><time>2026-04-11T07:39:16.518Z</time></trkpt><trkpt lat="45.7427424" lon="8.970754"><ele>361.0</ele><time>2026-04-11T07:39:25.787Z</time></trkpt><trkpt lat="45.7427707" lon="8.9706683"><ele>360.5714285714286</ele><time>2026-04-11T07:39:39.174Z</time></trkpt><trkpt lat="45.7428284" lon="8.970616"><ele>360.1428571428571</ele><time>2026-04-11T07:39:47.052Z</time></trkpt><trkpt lat="45.7428921" lon="8.9705982"><ele>359.7142857142857</ele><time>2026-04-11T07:40:02.22Z</time></trkpt><trkpt lat="45.7429101" lon="8.9707048"><ele>359.28571428571433</ele><time>2026-04-11T07:40:11.13Z</time></trkpt><trkpt lat="45.7429298" lon="8.9708082"><ele>358.8571428571429</ele><time>2026-04-11T07:40:16.194Z</time></trkpt><trkpt lat="45.7429718" lon="8.9708816"><ele>358.42857142857144</ele><time>2026-04-11T07:40:23.15Z</time></trkpt><trkpt lat="45.7430263" lon="8.9709358"><ele>358.0</ele><time>2026-04-11T07:40:28.13Z</time></trkpt><trkpt lat="45.7430743" lon="8.9708692"><ele>357.42857142857144</ele><time>2026-04-11T07:40:33.016Z</time></trkpt><trkpt lat="45.7430841" lon="8.9707716"><ele>356.8571428571429</ele><time>2026-04-11T07:40:37.053Z</time></trkpt><trkpt lat="45.7430826" lon="8.9706653"><ele>356.28571428571433</ele><time>2026-04-11T07:40:41.119Z</time></trkpt><trkpt lat="45.7431219" lon="8.9705787"><ele>355.7142857142857</ele><time>2026-04-11T07:40:45.22Z</time></trkpt><trkpt lat="45.7431738" lon="8.9704977"><ele>355.1428571428571</ele><time>2026-04-11T07:40:50.178Z</time></trkpt><trkpt lat="45.7432288" lon="8.9704449"><ele>354.5714285714286</ele><time>2026-04-11T07:40:55.13Z</time></trkpt><trkpt lat="45.7433021" lon="8.9704235"><ele>354.0</ele><time>2026-04-11T07:41:01.172Z</time></trkpt><trkpt lat="45.7433743" lon="8.9704317"><ele>354.0</ele><time>2026-04-11T07:41:06.147Z</time></trkpt><trkpt lat="45.7434553" lon="8.9704383"><ele>354.0</ele><time>2026-04-11T07:41:11.155Z</time></trkpt><trkpt lat="45.743528" lon="8.9704339"><ele>354.0</ele><time>2026-04-11T07:41:15.144Z</time></trkpt><trkpt lat="45.743595" lon="8.9704368"><ele>354.0</ele><time>2026-04-11T07:41:19.152Z</time></trkpt><trkpt lat="45.7436653" lon="8.970443"><ele>354.0</ele><time>2026-04-11T07:41:23.161Z</time></trkpt><trkpt lat="45.7437293" lon="8.9704394"><ele>354.0</ele><time>2026-04-11T07:41:27.169Z</time></trkpt><trkpt lat="45.7438069" lon="8.9704302"><ele>354.0</ele><time>2026-04-11T07:41:32.208Z</time></trkpt><trkpt lat="45.7438725" lon="8.9704196"><ele>354.0</ele><time>2026-04-11T07:41:36.216Z</time></trkpt><trkpt lat="45.7439456" lon="8.9704167"><ele>354.0</ele><time>2026-04-11T07:41:41.152Z</time></trkpt><trkpt lat="45.7440222" lon="8.9704002"><ele>354.0</ele><time>2026-04-11T07:41:46.188Z</time></trkpt><trkpt lat="45.744086" lon="8.9703647"><ele>354.0</ele><time>2026-04-11T07:41:50.131Z</time></trkpt><trkpt lat="45.7441505" lon="8.9703306"><ele>354.0</ele><time>2026-04-11T07:41:54.196Z</time></trkpt><trkpt lat="45.7442212" lon="8.9703074"><ele>354.0</ele><time>2026-04-11T07:41:59.06Z</time></trkpt><trkpt lat="45.7442973" lon="8.9702943"><ele>354.0</ele><time>2026-04-11T07:42:04.139Z</time></trkpt><trkpt lat="45.7443631" lon="8.9702855"><ele>354.8571428571429</ele><time>2026-04-11T07:42:08.168Z</time></trkpt><trkpt lat="45.7444261" lon="8.9702779"><ele>355.71428571428567</ele><time>2026-04-11T07:42:12.177Z</time></trkpt><trkpt lat="45.7444917" lon="8.9702824"><ele>356.57142857142856</ele><time>2026-04-11T07:42:17.069Z</time></trkpt><trkpt lat="45.744556" lon="8.9702941"><ele>357.42857142857144</ele><time>2026-04-11T07:42:21.233Z</time></trkpt><trkpt lat="45.7446326" lon="8.9703036"><ele>358.28571428571433</ele><time>2026-04-11T07:42:26.346Z</time></trkpt><trkpt lat="45.7447099" lon="8.9703123"><ele>359.1428571428571</ele><time>2026-04-11T07:42:31.413Z</time></trkpt><trkpt lat="45.744769" lon="8.9703691"><ele>360.0</ele><time>2026-04-11T07:42:36.613Z</time></trkpt><trkpt lat="45.7448103" lon="8.9704563"><ele>360.0</ele><time>2026-04-11T07:42:41.735Z</time></trkpt><trkpt lat="45.7448704" lon="8.9705272"><ele>360.0</ele><time>2026-04-11T07:42:46.793Z</time></trkpt><trkpt lat="45.7449309" lon="8.9706"><ele>360.0</ele><time>2026-04-11T07:42:51.855Z</time></trkpt><trkpt lat="45.7449832" lon="8.9706556"><ele>360.0</ele><time>2026-04-11T07:42:55.934Z</time></trkpt><trkpt lat="45.745045" lon="8.9707119"><ele>360.0</ele><time>2026-04-11T07:43:01.014Z</time></trkpt><trkpt lat="45.7451154" lon="8.9707432"><ele>360.0</ele><time>2026-04-11T07:43:07.169Z</time></trkpt><trkpt lat="45.7451891" lon="8.9707698"><ele>360.0</ele><time>2026-04-11T07:43:15.164Z</time></trkpt><trkpt lat="45.7452582" lon="8.9707673"><ele>360.57142857142856</ele><time>2026-04-11T07:43:21.131Z</time></trkpt><trkpt lat="45.745329" lon="8.9707478"><ele>361.14285714285717</ele><time>2026-04-11T07:43:27.188Z</time></trkpt><trkpt lat="45.7454077" lon="8.9707121"><ele>361.7142857142857</ele><time>2026-04-11T07:43:32.093Z</time></trkpt><trkpt lat="45.7454759" lon="8.9706884"><ele>362.2857142857143</ele><time>2026-04-11T07:43:36.253Z</time></trkpt><trkpt lat="45.7455484" lon="8.9706502"><ele>362.8571428571429</ele><time>2026-04-11T07:43:41.16Z</time></trkpt><trkpt lat="45.7456192" lon="8.970616"><ele>363.42857142857144</ele><time>2026-04-11T07:43:45.168Z</time></trkpt><trkpt lat="45.74568" lon="8.9705699"><ele>364.0</ele><time>2026-04-11T07:43:49.177Z</time></trkpt><trkpt lat="45.7457429" lon="8.9705188"><ele>364.0</ele><time>2026-04-11T07:43:53.185Z</time></trkpt><trkpt lat="45.7458001" lon="8.9704793"><ele>364.0</ele><time>2026-04-11T07:43:57.155Z</time></trkpt><trkpt lat="45.7458603" lon="8.9704454"><ele>364.0</ele><time>2026-04-11T07:44:02.13Z</time></trkpt><trkpt lat="45.745923" lon="8.9703882"><ele>364.0</ele><time>2026-04-11T07:44:07.157Z</time></trkpt><trkpt lat="45.7459936" lon="8.9703479"><ele>364.0</ele><time>2026-04-11T07:44:12.311Z</time></trkpt><trkpt lat="45.7460619" lon="8.97033"><ele>364.0</ele><time>2026-04-11T07:44:19.182Z</time></trkpt><trkpt lat="45.7461372" lon="8.97025"><ele>364.0</ele><time>2026-04-11T07:44:31.257Z</time></trkpt><trkpt lat="45.7461948" lon="8.9702085"><ele>364.14285714285717</ele><time>2026-04-11T07:44:35.314Z</time></trkpt><trkpt lat="45.7462637" lon="8.9701569"><ele>364.2857142857143</ele><time>2026-04-11T07:44:40.139Z</time></trkpt><trkpt lat="45.7463318" lon="8.9701323"><ele>364.42857142857144</ele><time>2026-04-11T07:44:44.147Z</time></trkpt><trkpt lat="45.7463965" lon="8.9701139"><ele>364.57142857142856</ele><time>2026-04-11T07:44:48.156Z</time></trkpt><trkpt lat="45.7464608" lon="8.9701099"><ele>364.7142857142857</ele><time>2026-04-11T07:44:53.195Z</time></trkpt><trkpt lat="45.7465342" lon="8.9700966"><ele>364.8571428571429</ele><time>2026-04-11T07:45:00.058Z</time></trkpt><trkpt lat="45.7465993" lon="8.9700807"><ele>365.0</ele><time>2026-04-11T07:45:05.074Z</time></trkpt><trkpt lat="45.7466788" lon="8.9700652"><ele>365.00000000000006</ele><time>2026-04-11T07:45:10.129Z</time></trkpt><trkpt lat="45.7467527" lon="8.9700457"><ele>365.0</ele><time>2026-04-11T07:45:14.21Z</time></trkpt><trkpt lat="45.7468233" lon="8.9700227"><ele>365.0</ele><time>2026-04-11T07:45:18.273Z</time></trkpt><trkpt lat="45.7468988" lon="8.9700124"><ele>365.0</ele><time>2026-04-11T07:45:22.249Z</time></trkpt><trkpt lat="45.746966" lon="8.9700108"><ele>365.0</ele><time>2026-04-11T07:45:26.178Z</time></trkpt><trkpt lat="45.7470405" lon="8.9699938"><ele>365.00000000000006</ele><time>2026-04-11T07:45:31.217Z</time></trkpt><trkpt lat="45.7471049" lon="8.9700139"><ele>365.0</ele><time>2026-04-11T07:45:35.197Z</time></trkpt><trkpt lat="45.7471618" lon="8.9699702"><ele>366.28571428571433</ele><time>2026-04-11T07:45:40.149Z</time></trkpt><trkpt lat="45.7471878" lon="8.9698749"><ele>367.57142857142856</ele><time>2026-04-11T07:45:47.135Z</time></trkpt><trkpt lat="45.747239" lon="8.9698181"><ele>368.8571428571429</ele><time>2026-04-11T07:45:53.13Z</time></trkpt><trkpt lat="45.7472969" lon="8.9697721"><ele>370.14285714285717</ele><time>2026-04-11T07:45:57.213Z</time></trkpt><trkpt lat="45.7473616" lon="8.9697225"><ele>371.42857142857144</ele><time>2026-04-11T07:46:03.168Z</time></trkpt><trkpt lat="45.7474264" lon="8.9696776"><ele>372.7142857142857</ele><time>2026-04-11T07:46:09.117Z</time></trkpt><trkpt lat="45.7474895" lon="8.9696564"><ele>374.0</ele><time>2026-04-11T07:46:14.141Z</time></trkpt><trkpt lat="45.7475628" lon="8.9696115"><ele>374.0</ele><time>2026-04-11T07:46:19.215Z</time></trkpt><trkpt lat="45.7476286" lon="8.9695617"><ele>374.0</ele><time>2026-04-11T07:46:24.137Z</time></trkpt><trkpt lat="45.7476899" lon="8.9695208"><ele>374.0</ele><time>2026-04-11T07:46:30.195Z</time></trkpt><trkpt lat="45.747754" lon="8.969495"><ele>374.0</ele><time>2026-04-11T07:46:35.234Z</time></trkpt><trkpt lat="45.7478269" lon="8.9694715"><ele>374.0</ele><time>2026-04-11T07:46:40.158Z</time></trkpt><trkpt lat="45.7478959" lon="8.9694538"><ele>374.0</ele><time>2026-04-11T07:46:44.167Z</time></trkpt><trkpt lat="45.747968" lon="8.9694264"><ele>374.0</ele><time>2026-04-11T07:46:49.117Z</time></trkpt><trkpt lat="45.7480381" lon="8.9693973"><ele>375.85714285714283</ele><time>2026-04-11T07:46:54.177Z</time></trkpt><trkpt lat="45.7481037" lon="8.9693975"><ele>377.7142857142857</ele><time>2026-04-11T07:46:59.169Z</time></trkpt><trkpt lat="45.7481781" lon="8.9693884"><ele>379.57142857142856</ele><time>2026-04-11T07:47:03.252Z</time></trkpt><trkpt lat="45.7482474" lon="8.9693736"><ele>381.42857142857144</ele><time>2026-04-11T07:47:08.13Z</time></trkpt><trkpt lat="45.7483095" lon="8.9693462"><ele>383.28571428571433</ele><time>2026-04-11T07:47:12.132Z</time></trkpt><trkpt lat="45.7483811" lon="8.9693031"><ele>385.14285714285717</ele><time>2026-04-11T07:47:16.131Z</time></trkpt><trkpt lat="45.7484437" lon="8.969275"><ele>387.0</ele><time>2026-04-11T07:47:20.129Z</time></trkpt><trkpt lat="45.7485119" lon="8.9692538"><ele>387.57142857142856</ele><time>2026-04-11T07:47:24.116Z</time></trkpt><trkpt lat="45.7485777" lon="8.969213"><ele>388.14285714285717</ele><time>2026-04-11T07:47:28.182Z</time></trkpt><trkpt lat="45.7486431" lon="8.96916"><ele>388.71428571428567</ele><time>2026-04-11T07:47:33.055Z</time></trkpt><trkpt lat="45.7487096" lon="8.9691118"><ele>389.2857142857143</ele><time>2026-04-11T07:47:38.23Z</time></trkpt><trkpt lat="45.7487801" lon="8.9690651"><ele>389.85714285714283</ele><time>2026-04-11T07:47:44.256Z</time></trkpt><trkpt lat="45.7488473" lon="8.9690488"><ele>390.4285714285714</ele><time>2026-04-11T07:47:49.213Z</time></trkpt><trkpt lat="45.7489167" lon="8.9690156"><ele>391.0</ele><time>2026-04-11T07:47:54.226Z</time></trkpt><trkpt lat="45.7489775" lon="8.9689635"><ele>388.57142857142856</ele><time>2026-04-11T07:47:59.179Z</time></trkpt><trkpt lat="45.7490447" lon="8.9689193"><ele>386.1428571428571</ele><time>2026-04-11T07:48:03.129Z</time></trkpt><trkpt lat="45.7491018" lon="8.9688501"><ele>383.71428571428567</ele><time>2026-04-11T07:48:07.196Z</time></trkpt><trkpt lat="45.7491521" lon="8.9687881"><ele>381.2857142857143</ele><time>2026-04-11T07:48:11.097Z</time></trkpt><trkpt lat="45.7492045" lon="8.9687357"><ele>378.8571428571429</ele><time>2026-04-11T07:48:14.962Z</time></trkpt><trkpt lat="45.7492614" lon="8.9686663"><ele>376.4285714285714</ele><time>2026-04-11T07:48:18.923Z</time></trkpt><trkpt lat="45.749308" lon="8.9686025"><ele>374.0</ele><time>2026-04-11T07:48:22.941Z</time></trkpt><trkpt lat="45.749352" lon="8.9685201"><ele>373.57142857142856</ele><time>2026-04-11T07:48:28.032Z</time></trkpt><trkpt lat="45.7493898" lon="8.968434"><ele>373.14285714285717</ele><time>2026-04-11T07:48:34.093Z</time></trkpt><trkpt lat="45.7494223" lon="8.9683491"><ele>372.7142857142857</ele><time>2026-04-11T07:48:38.082Z</time></trkpt><trkpt lat="45.749471" lon="8.9682726"><ele>372.2857142857143</ele><time>2026-04-11T07:48:42.288Z</time></trkpt><trkpt lat="45.7495437" lon="8.9682364"><ele>371.8571428571429</ele><time>2026-04-11T07:48:47.602Z</time></trkpt><trkpt lat="45.7495849" lon="8.9681584"><ele>371.42857142857144</ele><time>2026-04-11T07:48:55.213Z</time></trkpt><trkpt lat="45.749636" lon="8.9681034"><ele>371.0</ele><time>2026-04-11T07:49:00.13Z</time></trkpt><trkpt lat="45.7497023" lon="8.9680748"><ele>370.14285714285717</ele><time>2026-04-11T07:49:05.147Z</time></trkpt><trkpt lat="45.7497696" lon="8.9680968"><ele>369.2857142857143</ele><time>2026-04-11T07:49:11.131Z</time></trkpt><trkpt lat="45.749834" lon="8.9680831"><ele>368.42857142857144</ele><time>2026-04-11T07:49:16.193Z</time></trkpt><trkpt lat="45.7499012" lon="8.9680638"><ele>367.57142857142856</ele><time>2026-04-11T07:49:21.181Z</time></trkpt><trkpt lat="45.7499741" lon="8.9680499"><ele>366.7142857142857</ele><time>2026-04-11T07:49:27.213Z</time></trkpt><trkpt lat="45.7500319" lon="8.9680021"><ele>365.8571428571429</ele><time>2026-04-11T07:49:35.234Z</time></trkpt><trkpt lat="45.7500847" lon="8.9679293"><ele>365.0</ele><time>2026-04-11T07:49:42.139Z</time></trkpt><trkpt lat="45.750124" lon="8.9678441"><ele>365.00000000000006</ele><time>2026-04-11T07:49:49.13Z</time></trkpt><trkpt lat="45.750184" lon="8.9677849"><ele>365.0</ele><time>2026-04-11T07:49:55.195Z</time></trkpt><trkpt lat="45.7502415" lon="8.9677435"><ele>365.0</ele><time>2026-04-11T07:50:02.14Z</time></trkpt><trkpt lat="45.7502986" lon="8.9677029"><ele>365.0</ele><time>2026-04-11T07:50:08.172Z</time></trkpt><trkpt lat="45.7503661" lon="8.9676661"><ele>365.0</ele><time>2026-04-11T07:50:16.195Z</time></trkpt><trkpt lat="45.7504359" lon="8.9676566"><ele>365.00000000000006</ele><time>2026-04-11T07:50:23.944Z</time></trkpt><trkpt lat="45.7504987" lon="8.9676346"><ele>365.0</ele><time>2026-04-11T07:50:31.219Z</time></trkpt><trkpt lat="45.750565" lon="8.9676"><ele>366.28571428571433</ele><time>2026-04-11T07:50:37.225Z</time></trkpt><trkpt lat="45.7506292" lon="8.9675891"><ele>367.57142857142856</ele><time>2026-04-11T07:50:42.15Z</time></trkpt><trkpt lat="45.7507044" lon="8.9675854"><ele>368.8571428571429</ele><time>2026-04-11T07:50:48.248Z</time></trkpt><trkpt lat="45.7507745" lon="8.9675894"><ele>370.14285714285717</ele><time>2026-04-11T07:50:54.693Z</time></trkpt><trkpt lat="45.750844" lon="8.9675985"><ele>371.42857142857144</ele><time>2026-04-11T07:51:00.957Z</time></trkpt><trkpt lat="45.7509144" lon="8.9675985"><ele>372.7142857142857</ele><time>2026-04-11T07:51:07.23Z</time></trkpt><trkpt lat="45.7509784" lon="8.9675706"><ele>374.0</ele><time>2026-04-11T07:51:11.132Z</time></trkpt><trkpt lat="45.7510408" lon="8.9675565"><ele>374.57142857142856</ele><time>2026-04-11T07:51:15.145Z</time></trkpt><trkpt lat="45.7511106" lon="8.9675339"><ele>375.14285714285717</ele><time>2026-04-11T07:51:20.171Z</time></trkpt><trkpt lat="45.7511629" lon="8.9674621"><ele>375.7142857142857</ele><time>2026-04-11T07:51:26.248Z</time></trkpt><trkpt lat="45.7512148" lon="8.9673825"><ele>376.2857142857143</ele><time>2026-04-11T07:51:31.165Z</time></trkpt><trkpt lat="45.7512666" lon="8.9673121"><ele>376.8571428571429</ele><time>2026-04-11T07:51:35.174Z</time></trkpt><trkpt lat="45.7513171" lon="8.9672334"><ele>377.42857142857144</ele><time>2026-04-11T07:51:39.124Z</time></trkpt><trkpt lat="45.7513594" lon="8.9671577"><ele>378.0</ele><time>2026-04-11T07:51:45.137Z</time></trkpt><trkpt lat="45.7514237" lon="8.9670873"><ele>379.42857142857144</ele><time>2026-04-11T07:51:52.131Z</time></trkpt><trkpt lat="45.7514699" lon="8.9670213"><ele>380.8571428571429</ele><time>2026-04-11T07:51:56.132Z</time></trkpt><trkpt lat="45.751518" lon="8.9669547"><ele>382.2857142857143</ele><time>2026-04-11T07:52:00.11Z</time></trkpt><trkpt lat="45.7515715" lon="8.9668888"><ele>383.7142857142857</ele><time>2026-04-11T07:52:04.213Z</time></trkpt><trkpt lat="45.7516239" lon="8.9668368"><ele>385.14285714285717</ele><time>2026-04-11T07:52:08.159Z</time></trkpt><trkpt lat="45.7516704" lon="8.9667749"><ele>386.57142857142856</ele><time>2026-04-11T07:52:13.195Z</time></trkpt><trkpt lat="45.7517201" lon="8.9667076"><ele>388.0</ele><time>2026-04-11T07:52:18.235Z</time></trkpt><trkpt lat="45.7517731" lon="8.9666408"><ele>388.2857142857143</ele><time>2026-04-11T07:52:22.256Z</time></trkpt><trkpt lat="45.7518323" lon="8.9665688"><ele>388.5714285714286</ele><time>2026-04-11T07:52:27.307Z</time></trkpt><trkpt lat="45.7518957" lon="8.9665331"><ele>388.8571428571429</ele><time>2026-04-11T07:52:31.855Z</time></trkpt><trkpt lat="45.7519549" lon="8.9664934"><ele>389.1428571428571</ele><time>2026-04-11T07:52:36.214Z</time></trkpt><trkpt lat="45.7520315" lon="8.9664591"><ele>389.42857142857144</ele><time>2026-04-11T07:52:40.223Z</time></trkpt><trkpt lat="45.7521031" lon="8.9664439"><ele>389.7142857142857</ele><time>2026-04-11T07:52:45.147Z</time></trkpt><trkpt lat="45.7521759" lon="8.9664465"><ele>390.0</ele><time>2026-04-11T07:52:50Z</time></trkpt><trkpt lat="45.7522468" lon="8.9664324"><ele>390.42857142857144</ele><time>2026-04-11T07:52:54.093Z</time></trkpt><trkpt lat="45.7523183" lon="8.9664145"><ele>390.85714285714283</ele><time>2026-04-11T07:52:58.123Z</time></trkpt><trkpt lat="45.7523824" lon="8.9663868"><ele>391.28571428571433</ele><time>2026-04-11T07:53:02.196Z</time></trkpt><trkpt lat="45.7524449" lon="8.9663285"><ele>391.7142857142857</ele><time>2026-04-11T07:53:07.252Z</time></trkpt><trkpt lat="45.7524988" lon="8.9662812"><ele>392.14285714285717</ele><time>2026-04-11T07:53:11.213Z</time></trkpt><trkpt lat="45.7525582" lon="8.966236"><ele>392.5714285714286</ele><time>2026-04-11T07:53:15.234Z</time></trkpt><trkpt lat="45.7526135" lon="8.9661868"><ele>393.0</ele><time>2026-04-11T07:53:19.198Z</time></trkpt><trkpt lat="45.7526684" lon="8.9661415"><ele>392.7142857142857</ele><time>2026-04-11T07:53:24.255Z</time></trkpt><trkpt lat="45.7527264" lon="8.9660703"><ele>392.42857142857144</ele><time>2026-04-11T07:53:30.155Z</time></trkpt><trkpt lat="45.7527651" lon="8.9659772"><ele>392.1428571428571</ele><time>2026-04-11T07:53:35.194Z</time></trkpt><trkpt lat="45.7527959" lon="8.9658792"><ele>391.8571428571429</ele><time>2026-04-11T07:53:39.203Z</time></trkpt><trkpt lat="45.7528228" lon="8.9657886"><ele>391.57142857142856</ele><time>2026-04-11T07:53:42.294Z</time></trkpt><trkpt lat="45.752858" lon="8.9656933"><ele>391.2857142857143</ele><time>2026-04-11T07:53:46.189Z</time></trkpt><trkpt lat="45.7528975" lon="8.9656002"><ele>391.0</ele><time>2026-04-11T07:53:51.165Z</time></trkpt><trkpt lat="45.7529341" lon="8.9655216"><ele>391.00000000000006</ele><time>2026-04-11T07:53:57.184Z</time></trkpt><trkpt lat="45.7529747" lon="8.9654372"><ele>391.0</ele><time>2026-04-11T07:54:04.14Z</time></trkpt><trkpt lat="45.752995" lon="8.9653444"><ele>391.0</ele><time>2026-04-11T07:54:13.129Z</time></trkpt><trkpt lat="45.7530471" lon="8.965236"><ele>391.0</ele><time>2026-04-11T07:54:44.145Z</time></trkpt><trkpt lat="45.7531066" lon="8.9651926"><ele>391.00000000000006</ele><time>2026-04-11T07:54:51.186Z</time></trkpt><trkpt lat="45.7531877" lon="8.9651583"><ele>391.0</ele><time>2026-04-11T07:54:53.255Z</time></trkpt><trkpt lat="45.7532528" lon="8.9651063"><ele>390.99999999999994</ele><time>2026-04-11T07:54:58.34Z</time></trkpt><trkpt lat="45.7533227" lon="8.9650595"><ele>391.0</ele><time>2026-04-11T07:55:03.561Z</time></trkpt><trkpt lat="45.7533809" lon="8.9650135"><ele>391.0</ele><time>2026-04-11T07:55:07.639Z</time></trkpt><trkpt lat="45.7534373" lon="8.9649687"><ele>391.0</ele><time>2026-04-11T07:55:11.77Z</time></trkpt><trkpt lat="45.7534953" lon="8.964921"><ele>391.0</ele><time>2026-04-11T07:55:16.953Z</time></trkpt><trkpt lat="45.7535598" lon="8.964877"><ele>390.99999999999994</ele><time>2026-04-11T07:55:22.131Z</time></trkpt><trkpt lat="45.7536247" lon="8.9648329"><ele>391.0</ele><time>2026-04-11T07:55:27.409Z</time></trkpt><trkpt lat="45.7536766" lon="8.9647679"><ele>390.57142857142856</ele><time>2026-04-11T07:55:31.56Z</time></trkpt><trkpt lat="45.7537393" lon="8.9647071"><ele>390.1428571428571</ele><time>2026-04-11T07:55:36.854Z</time></trkpt><trkpt lat="45.7538123" lon="8.9646674"><ele>389.71428571428567</ele><time>2026-04-11T07:55:41.91Z</time></trkpt><trkpt lat="45.7538796" lon="8.9646375"><ele>389.2857142857143</ele><time>2026-04-11T07:55:47.013Z</time></trkpt><trkpt lat="45.7539412" lon="8.9646741"><ele>388.8571428571429</ele><time>2026-04-11T07:55:55.475Z</time></trkpt><trkpt lat="45.7539709" lon="8.964757"><ele>388.4285714285714</ele><time>2026-04-11T07:56:05.662Z</time></trkpt><trkpt lat="45.753952" lon="8.9648614"><ele>388.0</ele><time>2026-04-11T07:56:11.85Z</time></trkpt><trkpt lat="45.7539381" lon="8.9649532"><ele>387.0</ele><time>2026-04-11T07:56:17.053Z</time></trkpt><trkpt lat="45.7539266" lon="8.9650445"><ele>386.0</ele><time>2026-04-11T07:56:23.158Z</time></trkpt><trkpt lat="45.7539474" lon="8.9651365"><ele>385.0</ele><time>2026-04-11T07:56:31.459Z</time></trkpt><trkpt lat="45.7539539" lon="8.9652307"><ele>384.0</ele><time>2026-04-11T07:56:38.606Z</time></trkpt><trkpt lat="45.7539615" lon="8.9653211"><ele>383.0</ele><time>2026-04-11T07:56:45.07Z</time></trkpt><trkpt lat="45.7539855" lon="8.96542"><ele>382.0</ele><time>2026-04-11T07:56:50.132Z</time></trkpt><trkpt lat="45.7540138" lon="8.9655182"><ele>381.0</ele><time>2026-04-11T07:56:55.227Z</time></trkpt><trkpt lat="45.7540284" lon="8.9656359"><ele>381.0</ele><time>2026-04-11T07:57:01.131Z</time></trkpt><trkpt lat="45.7540529" lon="8.965732"><ele>381.0</ele><time>2026-04-11T07:57:06.22Z</time></trkpt><trkpt lat="45.7540898" lon="8.9658312"><ele>381.0</ele><time>2026-04-11T07:57:10.172Z</time></trkpt><trkpt lat="45.754127" lon="8.9659071"><ele>381.0</ele><time>2026-04-11T07:57:13.149Z</time></trkpt><trkpt lat="45.7541568" lon="8.9659895"><ele>381.0</ele><time>2026-04-11T07:57:17.152Z</time></trkpt><trkpt lat="45.7541785" lon="8.9660806"><ele>381.0</ele><time>2026-04-11T07:57:22.197Z</time></trkpt><trkpt lat="45.7542394" lon="8.9661127"><ele>381.0</ele><time>2026-04-11T07:57:31.13Z</time></trkpt><trkpt lat="45.7542628" lon="8.966242"><ele>381.0</ele><time>2026-04-11T07:57:33.192Z</time></trkpt><trkpt lat="45.7543308" lon="8.9662725"><ele>381.0</ele><time>2026-04-11T07:57:38.13Z</time></trkpt><trkpt lat="45.7544012" lon="8.9662731"><ele>381.0</ele><time>2026-04-11T07:57:44.128Z</time></trkpt><trkpt lat="45.7544558" lon="8.9662037"><ele>381.0</ele><time>2026-04-11T07:57:50.072Z</time></trkpt><trkpt lat="45.7544984" lon="8.9661166"><ele>381.0</ele><time>2026-04-11T07:57:55.181Z</time></trkpt><trkpt lat="45.7545352" lon="8.9660392"><ele>381.0</ele><time>2026-04-11T07:58:00.193Z</time></trkpt><trkpt lat="45.7545797" lon="8.9659587"><ele>381.0</ele><time>2026-04-11T07:58:06.084Z</time></trkpt><trkpt lat="45.7546252" lon="8.9658857"><ele>381.2857142857143</ele><time>2026-04-11T07:58:11.215Z</time></trkpt><trkpt lat="45.7546688" lon="8.9658136"><ele>381.5714285714286</ele><time>2026-04-11T07:58:17.17Z</time></trkpt><trkpt lat="45.7547268" lon="8.9657477"><ele>381.8571428571429</ele><time>2026-04-11T07:58:23.13Z</time></trkpt><trkpt lat="45.7547833" lon="8.965674"><ele>382.1428571428571</ele><time>2026-04-11T07:58:29.196Z</time></trkpt><trkpt lat="45.7548295" lon="8.9656023"><ele>382.42857142857144</ele><time>2026-04-11T07:58:35.082Z</time></trkpt><trkpt lat="45.7548869" lon="8.9655318"><ele>382.7142857142857</ele><time>2026-04-11T07:58:40.132Z</time></trkpt><trkpt lat="45.7549326" lon="8.9654556"><ele>383.0</ele><time>2026-04-11T07:58:45.552Z</time></trkpt><trkpt lat="45.7549889" lon="8.9654056"><ele>383.0</ele><time>2026-04-11T07:58:51.13Z</time></trkpt><trkpt lat="45.7550473" lon="8.9653537"><ele>383.0</ele><time>2026-04-11T07:58:56.103Z</time></trkpt><trkpt lat="45.7551134" lon="8.9653232"><ele>383.0</ele><time>2026-04-11T07:59:03.211Z</time></trkpt><trkpt lat="45.7551768" lon="8.9652863"><ele>383.0</ele><time>2026-04-11T07:59:11.131Z</time></trkpt><trkpt lat="45.7552424" lon="8.9653252"><ele>383.0</ele><time>2026-04-11T07:59:18.636Z</time></trkpt><trkpt lat="45.7552991" lon="8.9653702"><ele>383.0</ele><time>2026-04-11T07:59:25.177Z</time></trkpt><trkpt lat="45.7553427" lon="8.9654369"><ele>383.0</ele><time>2026-04-11T07:59:30.13Z</time></trkpt><trkpt lat="45.7554018" lon="8.9654932"><ele>383.1428571428571</ele><time>2026-04-11T07:59:35.165Z</time></trkpt><trkpt lat="45.7554749" lon="8.9655176"><ele>383.2857142857143</ele><time>2026-04-11T07:59:40.141Z</time></trkpt><trkpt lat="45.7555415" lon="8.9655288"><ele>383.42857142857144</ele><time>2026-04-11T07:59:44.289Z</time></trkpt><trkpt lat="45.7556047" lon="8.9655193"><ele>383.57142857142856</ele><time>2026-04-11T07:59:48.221Z</time></trkpt><trkpt lat="45.7556712" lon="8.9654935"><ele>383.7142857142857</ele><time>2026-04-11T07:59:53.146Z</time></trkpt><trkpt lat="45.7557446" lon="8.9654688"><ele>383.85714285714283</ele><time>2026-04-11T07:59:58.129Z</time></trkpt><trkpt lat="45.7558172" lon="8.9654351"><ele>384.0</ele><time>2026-04-11T08:00:03.131Z</time></trkpt><trkpt lat="45.7558773" lon="8.9654028"><ele>383.99999999999994</ele><time>2026-04-11T08:00:07.174Z</time></trkpt><trkpt lat="45.7559396" lon="8.9653643"><ele>384.0</ele><time>2026-04-11T08:00:12.158Z</time></trkpt><trkpt lat="45.7560018" lon="8.9653146"><ele>384.0</ele><time>2026-04-11T08:00:18.159Z</time></trkpt><trkpt lat="45.7560596" lon="8.965263"><ele>384.0</ele><time>2026-04-11T08:00:22.135Z</time></trkpt><trkpt lat="45.7561118" lon="8.9652107"><ele>384.0</ele><time>2026-04-11T08:00:26.131Z</time></trkpt><trkpt lat="45.7561571" lon="8.9651428"><ele>383.99999999999994</ele><time>2026-04-11T08:00:31.022Z</time></trkpt><trkpt lat="45.7562065" lon="8.9650827"><ele>384.0</ele><time>2026-04-11T08:00:36.144Z</time></trkpt><trkpt lat="45.7562578" lon="8.965017"><ele>384.4285714285714</ele><time>2026-04-11T08:00:42.165Z</time></trkpt><trkpt lat="45.7563221" lon="8.9649611"><ele>384.85714285714283</ele><time>2026-04-11T08:00:48.161Z</time></trkpt><trkpt lat="45.7563768" lon="8.9649109"><ele>385.2857142857143</ele><time>2026-04-11T08:00:53.16Z</time></trkpt><trkpt lat="45.7564424" lon="8.9648626"><ele>385.71428571428567</ele><time>2026-04-11T08:00:58.097Z</time></trkpt><trkpt lat="45.7565045" lon="8.9648276"><ele>386.14285714285717</ele><time>2026-04-11T08:01:03.16Z</time></trkpt><trkpt lat="45.75657" lon="8.964795"><ele>386.57142857142856</ele><time>2026-04-11T08:01:10.13Z</time></trkpt><trkpt lat="45.7566375" lon="8.9647851"><ele>387.0</ele><time>2026-04-11T08:01:16.18Z</time></trkpt><trkpt lat="45.7567042" lon="8.9648013"><ele>387.0</ele><time>2026-04-11T08:01:21.107Z</time></trkpt><trkpt lat="45.7567623" lon="8.9648417"><ele>387.0</ele><time>2026-04-11T08:01:27.074Z</time></trkpt><trkpt lat="45.7568128" lon="8.9649025"><ele>387.0</ele><time>2026-04-11T08:01:33.473Z</time></trkpt><trkpt lat="45.7568446" lon="8.9649971"><ele>387.0</ele><time>2026-04-11T08:01:38.816Z</time></trkpt><trkpt lat="45.7568841" lon="8.9650925"><ele>387.0</ele><time>2026-04-11T08:01:43.092Z</time></trkpt><trkpt lat="45.7569275" lon="8.9651639"><ele>387.0</ele><time>2026-04-11T08:01:47.13Z</time></trkpt><trkpt lat="45.756967" lon="8.9652471"><ele>387.0</ele><time>2026-04-11T08:01:52.199Z</time></trkpt><trkpt lat="45.7569998" lon="8.9653352"><ele>387.42857142857144</ele><time>2026-04-11T08:01:56.39Z</time></trkpt><trkpt lat="45.7570481" lon="8.9654037"><ele>387.8571428571429</ele><time>2026-04-11T08:02:01.612Z</time></trkpt><trkpt lat="45.7571154" lon="8.9653953"><ele>388.2857142857143</ele><time>2026-04-11T08:02:07.934Z</time></trkpt><trkpt lat="45.7571864" lon="8.9654004"><ele>388.7142857142857</ele><time>2026-04-11T08:02:16.195Z</time></trkpt><trkpt lat="45.7572609" lon="8.965404"><ele>389.1428571428571</ele><time>2026-04-11T08:02:23.182Z</time></trkpt><trkpt lat="45.7573133" lon="8.9654617"><ele>389.57142857142856</ele><time>2026-04-11T08:03:00.13Z</time></trkpt><trkpt lat="45.75738" lon="8.965505"><ele>390.0</ele><time>2026-04-11T08:03:07.13Z</time></trkpt><trkpt lat="45.75745" lon="8.9654733"><ele>390.0</ele><time>2026-04-11T08:03:13.13Z</time></trkpt><trkpt lat="45.7575206" lon="8.9654356"><ele>390.0</ele><time>2026-04-11T08:03:19.233Z</time></trkpt><trkpt lat="45.7575832" lon="8.9654067"><ele>390.0</ele><time>2026-04-11T08:03:24.128Z</time></trkpt><trkpt lat="45.7576501" lon="8.9653691"><ele>390.0</ele><time>2026-04-11T08:03:29.21Z</time></trkpt><trkpt lat="45.7576646" lon="8.9654666"><ele>390.0</ele><time>2026-04-11T08:03:57.211Z</time></trkpt><trkpt lat="45.7576305" lon="8.9655548"><ele>390.0</ele><time>2026-04-11T08:04:03.166Z</time></trkpt><trkpt lat="45.7576197" lon="8.9656438"><ele>390.0</ele><time>2026-04-11T08:04:08.156Z</time></trkpt><trkpt lat="45.7576079" lon="8.9657437"><ele>390.0</ele><time>2026-04-11T08:04:13.13Z</time></trkpt><trkpt lat="45.7576074" lon="8.9658423"><ele>390.0</ele><time>2026-04-11T08:04:19.2Z</time></trkpt><trkpt lat="45.7576068" lon="8.9659332"><ele>390.0</ele><time>2026-04-11T08:04:23.092Z</time></trkpt><trkpt lat="45.757597" lon="8.9660365"><ele>390.0</ele><time>2026-04-11T08:04:27.131Z</time></trkpt><trkpt lat="45.7575958" lon="8.9661337"><ele>390.0</ele><time>2026-04-11T08:04:31.112Z</time></trkpt><trkpt lat="45.75757" lon="8.9662313"><ele>390.0</ele><time>2026-04-11T08:04:36.151Z</time></trkpt><trkpt lat="45.7575294" lon="8.9663046"><ele>390.0</ele><time>2026-04-11T08:04:41.129Z</time></trkpt><trkpt lat="45.7574728" lon="8.9663599"><ele>388.8333333333333</ele><time>2026-04-11T08:04:47.133Z</time></trkpt><trkpt lat="45.7574188" lon="8.966415"><ele>387.6666666666667</ele><time>2026-04-11T08:04:53.253Z</time></trkpt><trkpt lat="45.7573618" lon="8.9664927"><ele>386.5</ele><time>2026-04-11T08:04:58.142Z</time></trkpt><trkpt lat="45.7573373" lon="8.9665939"><ele>385.33333333333337</ele><time>2026-04-11T08:05:03.154Z</time></trkpt><trkpt lat="45.7573437" lon="8.9666945"><ele>384.1666666666667</ele><time>2026-04-11T08:05:09.221Z</time></trkpt><trkpt lat="45.7574003" lon="8.9667708"><ele>383.0</ele><time>2026-04-11T08:05:15.763Z</time></trkpt><trkpt lat="45.7574635" lon="8.9668482"><ele>382.57142857142856</ele><time>2026-04-11T08:05:18.877Z</time></trkpt><trkpt lat="45.7575182" lon="8.9669042"><ele>382.1428571428571</ele><time>2026-04-11T08:05:25.143Z</time></trkpt><trkpt lat="45.7575671" lon="8.9669944"><ele>381.7142857142857</ele><time>2026-04-11T08:05:29.233Z</time></trkpt><trkpt lat="45.757618" lon="8.967066"><ele>381.2857142857143</ele><time>2026-04-11T08:05:33.375Z</time></trkpt><trkpt lat="45.7576682" lon="8.967125"><ele>380.8571428571429</ele><time>2026-04-11T08:05:37.461Z</time></trkpt><trkpt lat="45.7576851" lon="8.9672237"><ele>380.42857142857144</ele><time>2026-04-11T08:05:42.476Z</time></trkpt><trkpt lat="45.7576912" lon="8.9673246"><ele>380.0</ele><time>2026-04-11T08:05:48.441Z</time></trkpt><trkpt lat="45.7576845" lon="8.9674295"><ele>379.7142857142857</ele><time>2026-04-11T08:05:53.739Z</time></trkpt><trkpt lat="45.7576786" lon="8.9675396"><ele>379.42857142857144</ele><time>2026-04-11T08:05:58.853Z</time></trkpt><trkpt lat="45.7576735" lon="8.967636"><ele>379.1428571428571</ele><time>2026-04-11T08:06:02.913Z</time></trkpt><trkpt lat="45.7576747" lon="8.9677395"><ele>378.8571428571429</ele><time>2026-04-11T08:06:07.992Z</time></trkpt><trkpt lat="45.7576858" lon="8.9678432"><ele>378.57142857142856</ele><time>2026-04-11T08:06:13.098Z</time></trkpt><trkpt lat="45.7576975" lon="8.9679499"><ele>378.2857142857143</ele><time>2026-04-11T08:06:18.233Z</time></trkpt><trkpt lat="45.757702" lon="8.9680558"><ele>378.0</ele><time>2026-04-11T08:06:23.129Z</time></trkpt><trkpt lat="45.7577014" lon="8.9681557"><ele>378.0</ele><time>2026-04-11T08:06:28.083Z</time></trkpt><trkpt lat="45.7576992" lon="8.9682556"><ele>378.0</ele><time>2026-04-11T08:06:33.201Z</time></trkpt><trkpt lat="45.7577029" lon="8.968357"><ele>378.0</ele><time>2026-04-11T08:06:38.133Z</time></trkpt><trkpt lat="45.757749" lon="8.9684348"><ele>378.0</ele><time>2026-04-11T08:06:43.2Z</time></trkpt><trkpt lat="45.7578088" lon="8.9684739"><ele>378.0</ele><time>2026-04-11T08:06:47.173Z</time></trkpt><trkpt lat="45.757867" lon="8.9685269"><ele>378.0</ele><time>2026-04-11T08:06:52.131Z</time></trkpt><trkpt lat="45.7579415" lon="8.9685562"><ele>378.0</ele><time>2026-04-11T08:06:57.137Z</time></trkpt><trkpt lat="45.7580139" lon="8.9685873"><ele>377.2857142857143</ele><time>2026-04-11T08:07:02.177Z</time></trkpt><trkpt lat="45.7580855" lon="8.9686044"><ele>376.57142857142856</ele><time>2026-04-11T08:07:07.131Z</time></trkpt><trkpt lat="45.7581551" lon="8.9686201"><ele>375.8571428571429</ele><time>2026-04-11T08:07:13.253Z</time></trkpt><trkpt lat="45.7582317" lon="8.9686246"><ele>375.1428571428571</ele><time>2026-04-11T08:07:20.241Z</time></trkpt><trkpt lat="45.7582948" lon="8.9686276"><ele>374.42857142857144</ele><time>2026-04-11T08:07:25.125Z</time></trkpt><trkpt lat="45.7583651" lon="8.9686352"><ele>373.7142857142857</ele><time>2026-04-11T08:07:30.129Z</time></trkpt><trkpt lat="45.7584287" lon="8.9686348"><ele>373.0</ele><time>2026-04-11T08:07:34.325Z</time></trkpt><trkpt lat="45.7585022" lon="8.9686282"><ele>373.7142857142857</ele><time>2026-04-11T08:07:38.562Z</time></trkpt><trkpt lat="45.7585746" lon="8.9686056"><ele>374.42857142857144</ele><time>2026-04-11T08:07:42.838Z</time></trkpt><trkpt lat="45.7586427" lon="8.9685807"><ele>375.1428571428571</ele><time>2026-04-11T08:07:47.04Z</time></trkpt><trkpt lat="45.7587099" lon="8.968557"><ele>375.8571428571429</ele><time>2026-04-11T08:07:51.197Z</time></trkpt><trkpt lat="45.7587813" lon="8.9685241"><ele>376.57142857142856</ele><time>2026-04-11T08:07:56.13Z</time></trkpt><trkpt lat="45.7588547" lon="8.968488"><ele>377.2857142857143</ele><time>2026-04-11T08:08:01.239Z</time></trkpt><trkpt lat="45.7589204" lon="8.968439"><ele>378.0</ele><time>2026-04-11T08:08:06.2Z</time></trkpt><trkpt lat="45.7589794" lon="8.9683932"><ele>378.42857142857144</ele><time>2026-04-11T08:08:11.129Z</time></trkpt><trkpt lat="45.7590394" lon="8.968357"><ele>378.8571428571429</ele><time>2026-04-11T08:08:16.165Z</time></trkpt><trkpt lat="45.7591085" lon="8.968341"><ele>379.2857142857143</ele><time>2026-04-11T08:08:23.093Z</time></trkpt><trkpt lat="45.759175" lon="8.9683058"><ele>379.7142857142857</ele><time>2026-04-11T08:08:30.197Z</time></trkpt><trkpt lat="45.7592355" lon="8.9682708"><ele>380.14285714285717</ele><time>2026-04-11T08:08:35.178Z</time></trkpt><trkpt lat="45.7592997" lon="8.9682523"><ele>380.57142857142856</ele><time>2026-04-11T08:08:41.139Z</time></trkpt><trkpt lat="45.7593671" lon="8.9682156"><ele>381.0</ele><time>2026-04-11T08:08:48.233Z</time></trkpt><trkpt lat="45.7594323" lon="8.9681917"><ele>385.0</ele><time>2026-04-11T08:08:54.189Z</time></trkpt></trkseg></trk></gpx>